<?xml version="1.0" encoding="UTF-8" standalone="no" ?>
<gpx xmlns="http://www.topografix.com/GPX/1/1" xmlns:xsi="http://www.w3.org/2001/XMLSchema-instance" xsi:schemaLocation="http://www.topografix.com/GPX/1/1 http://www.topografix.com/GPX/1/1/gpx.xsd" version="1.1" creator="VisuGPX - https://www.visugpx.com">
  <metadata>
    <name>ski de fond :  Col de Plainpalais- Porte de Crolles 27/02/2015</name>
    <desc><![CDATA[ski de fond :  Col de Plainpalais- Porte de Crolles 27/02/2015
Sous la neige presque toute la journée, pistes très peu tracées]]></desc>
  </metadata>
  <trk>
    <name><![CDATA[2015-02-27 11:00]]></name>
    <desc><![CDATA[<h1>OruxMaps</h1><br /><hr align="center" width="480" style="height: 2px; width: 517px"/><h2>Nom: 2015-02-27 11:00</h2><br /><p>Temps de départ: 02/27/2015 10:59</p><p>Temps d'arrivée: 02/27/2015 18:34</p><p>Distance: 25,7km (07:34)</p><p>Temps déplacement: 04:36</p><p>Vitesse moyenne: 3,4km/h</p><p>Vitesse moyenne: 5,6km/h</p><p>Vitess Max.: 30,2km/h</p><p>Altitude minimale: 1209m</p><p>Altitude maximale: 1471m</p><p>Vitesse d'élévation: 239,8m/h</p><p>Vitesse de descente: -314,9m/h</p><p>Gain Altitude: 962m</p><p>Perte Altitude: -943m</p><p>Temps d'élévation: 04:00</p><p>Temps de descente: 02:59</p><hr align="center" width="480" style="height: 2px; width: 517px"/>]]></desc>
    <trkseg>
      <trkpt lat="45.64548" lon="6.01431">
        <ele>1180</ele>
        <time>2015-02-27T09:59:44Z</time>
      </trkpt>
      <trkpt lat="45.64552" lon="6.01404">
        <ele>1183</ele>
        <time>2015-02-27T10:01:53Z</time>
      </trkpt>
      <trkpt lat="45.64549" lon="6.01378">
        <ele>1184</ele>
        <time>2015-02-27T10:02:11Z</time>
      </trkpt>
      <trkpt lat="45.64539" lon="6.01356">
        <ele>1185</ele>
        <time>2015-02-27T10:02:29Z</time>
      </trkpt>
      <trkpt lat="45.6453" lon="6.01334">
        <ele>1185</ele>
        <time>2015-02-27T10:02:49Z</time>
      </trkpt>
      <trkpt lat="45.64534" lon="6.01307">
        <ele>1189</ele>
        <time>2015-02-27T10:03:12Z</time>
      </trkpt>
      <trkpt lat="45.64538" lon="6.01281">
        <ele>1191</ele>
        <time>2015-02-27T10:03:33Z</time>
      </trkpt>
      <trkpt lat="45.64539" lon="6.01255">
        <ele>1191</ele>
        <time>2015-02-27T10:04:32Z</time>
      </trkpt>
      <trkpt lat="45.64528" lon="6.01234">
        <ele>1196</ele>
        <time>2015-02-27T10:05:53Z</time>
      </trkpt>
      <trkpt lat="45.64528" lon="6.01207">
        <ele>1197</ele>
        <time>2015-02-27T10:06:19Z</time>
      </trkpt>
      <trkpt lat="45.64544" lon="6.01193">
        <ele>1198</ele>
        <time>2015-02-27T10:06:46Z</time>
      </trkpt>
      <trkpt lat="45.64562" lon="6.01201">
        <ele>1198</ele>
        <time>2015-02-27T10:07:06Z</time>
      </trkpt>
      <trkpt lat="45.64577" lon="6.01217">
        <ele>1197</ele>
        <time>2015-02-27T10:07:23Z</time>
      </trkpt>
      <trkpt lat="45.64586" lon="6.0124">
        <ele>1198</ele>
        <time>2015-02-27T10:07:43Z</time>
      </trkpt>
      <trkpt lat="45.64595" lon="6.01263">
        <ele>1197</ele>
        <time>2015-02-27T10:08:01Z</time>
      </trkpt>
      <trkpt lat="45.64601" lon="6.01288">
        <ele>1197</ele>
        <time>2015-02-27T10:08:20Z</time>
      </trkpt>
      <trkpt lat="45.64609" lon="6.01313">
        <ele>1196</ele>
        <time>2015-02-27T10:08:32Z</time>
      </trkpt>
      <trkpt lat="45.64616" lon="6.01339">
        <ele>1192</ele>
        <time>2015-02-27T10:08:42Z</time>
      </trkpt>
      <trkpt lat="45.64624" lon="6.01364">
        <ele>1192</ele>
        <time>2015-02-27T10:08:54Z</time>
      </trkpt>
      <trkpt lat="45.64631" lon="6.01389">
        <ele>1192</ele>
        <time>2015-02-27T10:09:09Z</time>
      </trkpt>
      <trkpt lat="45.64645" lon="6.01405">
        <ele>1192</ele>
        <time>2015-02-27T10:09:28Z</time>
      </trkpt>
      <trkpt lat="45.64662" lon="6.01414">
        <ele>1194</ele>
        <time>2015-02-27T10:09:49Z</time>
      </trkpt>
      <trkpt lat="45.64671" lon="6.01391">
        <ele>1200</ele>
        <time>2015-02-27T10:10:19Z</time>
      </trkpt>
      <trkpt lat="45.64661" lon="6.01369">
        <ele>1195</ele>
        <time>2015-02-27T10:10:37Z</time>
      </trkpt>
      <trkpt lat="45.64666" lon="6.01343">
        <ele>1199</ele>
        <time>2015-02-27T10:11:28Z</time>
      </trkpt>
      <trkpt lat="45.64678" lon="6.01323">
        <ele>1206</ele>
        <time>2015-02-27T10:11:49Z</time>
      </trkpt>
      <trkpt lat="45.64689" lon="6.01301">
        <ele>1208</ele>
        <time>2015-02-27T10:12:07Z</time>
      </trkpt>
      <trkpt lat="45.64687" lon="6.01275">
        <ele>1209</ele>
        <time>2015-02-27T10:12:22Z</time>
      </trkpt>
      <trkpt lat="45.64677" lon="6.01253">
        <ele>1209</ele>
        <time>2015-02-27T10:12:40Z</time>
      </trkpt>
      <trkpt lat="45.64661" lon="6.01241">
        <ele>1207</ele>
        <time>2015-02-27T10:13:01Z</time>
      </trkpt>
      <trkpt lat="45.64643" lon="6.01232">
        <ele>1205</ele>
        <time>2015-02-27T10:13:20Z</time>
      </trkpt>
      <trkpt lat="45.64628" lon="6.01215">
        <ele>1204</ele>
        <time>2015-02-27T10:18:05Z</time>
      </trkpt>
      <trkpt lat="45.64618" lon="6.01194">
        <ele>1204</ele>
        <time>2015-02-27T10:18:23Z</time>
      </trkpt>
      <trkpt lat="45.64609" lon="6.01171">
        <ele>1204</ele>
        <time>2015-02-27T10:18:53Z</time>
      </trkpt>
      <trkpt lat="45.64603" lon="6.01146">
        <ele>1209</ele>
        <time>2015-02-27T10:19:10Z</time>
      </trkpt>
      <trkpt lat="45.64592" lon="6.01126">
        <ele>1210</ele>
        <time>2015-02-27T10:19:27Z</time>
      </trkpt>
      <trkpt lat="45.64583" lon="6.01101">
        <ele>1210</ele>
        <time>2015-02-27T10:19:46Z</time>
      </trkpt>
      <trkpt lat="45.64573" lon="6.01079">
        <ele>1210</ele>
        <time>2015-02-27T10:20:03Z</time>
      </trkpt>
      <trkpt lat="45.64564" lon="6.01054">
        <ele>1211</ele>
        <time>2015-02-27T10:20:23Z</time>
      </trkpt>
      <trkpt lat="45.64555" lon="6.01032">
        <ele>1212</ele>
        <time>2015-02-27T10:20:46Z</time>
      </trkpt>
      <trkpt lat="45.64547" lon="6.01009">
        <ele>1212</ele>
        <time>2015-02-27T10:21:02Z</time>
      </trkpt>
      <trkpt lat="45.64539" lon="6.00985">
        <ele>1216</ele>
        <time>2015-02-27T10:21:19Z</time>
      </trkpt>
      <trkpt lat="45.64524" lon="6.00968">
        <ele>1216</ele>
        <time>2015-02-27T10:23:27Z</time>
      </trkpt>
      <trkpt lat="45.64507" lon="6.00956">
        <ele>1216</ele>
        <time>2015-02-27T10:23:42Z</time>
      </trkpt>
      <trkpt lat="45.64493" lon="6.0094">
        <ele>1214</ele>
        <time>2015-02-27T10:23:58Z</time>
      </trkpt>
      <trkpt lat="45.64487" lon="6.00915">
        <ele>1218</ele>
        <time>2015-02-27T10:24:23Z</time>
      </trkpt>
      <trkpt lat="45.64487" lon="6.00889">
        <ele>1220</ele>
        <time>2015-02-27T10:24:40Z</time>
      </trkpt>
      <trkpt lat="45.64491" lon="6.00862">
        <ele>1221</ele>
        <time>2015-02-27T10:25:00Z</time>
      </trkpt>
      <trkpt lat="45.64495" lon="6.00836">
        <ele>1222</ele>
        <time>2015-02-27T10:25:23Z</time>
      </trkpt>
      <trkpt lat="45.645" lon="6.00811">
        <ele>1226</ele>
        <time>2015-02-27T10:25:46Z</time>
      </trkpt>
      <trkpt lat="45.64506" lon="6.00786">
        <ele>1228</ele>
        <time>2015-02-27T10:26:11Z</time>
      </trkpt>
      <trkpt lat="45.64512" lon="6.00761">
        <ele>1229</ele>
        <time>2015-02-27T10:26:32Z</time>
      </trkpt>
      <trkpt lat="45.64511" lon="6.00735">
        <ele>1232</ele>
        <time>2015-02-27T10:26:53Z</time>
      </trkpt>
      <trkpt lat="45.64506" lon="6.0071">
        <ele>1233</ele>
        <time>2015-02-27T10:27:13Z</time>
      </trkpt>
      <trkpt lat="45.64495" lon="6.00689">
        <ele>1234</ele>
        <time>2015-02-27T10:27:31Z</time>
      </trkpt>
      <trkpt lat="45.64478" lon="6.00679">
        <ele>1234</ele>
        <time>2015-02-27T10:27:50Z</time>
      </trkpt>
      <trkpt lat="45.6446" lon="6.0067">
        <ele>1234</ele>
        <time>2015-02-27T10:28:09Z</time>
      </trkpt>
      <trkpt lat="45.64443" lon="6.00658">
        <ele>1238</ele>
        <time>2015-02-27T10:28:33Z</time>
      </trkpt>
      <trkpt lat="45.64431" lon="6.00637">
        <ele>1238</ele>
        <time>2015-02-27T10:28:53Z</time>
      </trkpt>
      <trkpt lat="45.64422" lon="6.00615">
        <ele>1239</ele>
        <time>2015-02-27T10:29:14Z</time>
      </trkpt>
      <trkpt lat="45.6441" lon="6.00595">
        <ele>1240</ele>
        <time>2015-02-27T10:29:33Z</time>
      </trkpt>
      <trkpt lat="45.64397" lon="6.00576">
        <ele>1242</ele>
        <time>2015-02-27T10:30:03Z</time>
      </trkpt>
      <trkpt lat="45.64388" lon="6.00552">
        <ele>1243</ele>
        <time>2015-02-27T10:32:06Z</time>
      </trkpt>
      <trkpt lat="45.64403" lon="6.00536">
        <ele>1243</ele>
        <time>2015-02-27T10:32:29Z</time>
      </trkpt>
      <trkpt lat="45.64419" lon="6.00523">
        <ele>1242</ele>
        <time>2015-02-27T10:32:56Z</time>
      </trkpt>
      <trkpt lat="45.64437" lon="6.00515">
        <ele>1242</ele>
        <time>2015-02-27T10:33:36Z</time>
      </trkpt>
      <trkpt lat="45.64455" lon="6.00516">
        <ele>1242</ele>
        <time>2015-02-27T10:33:44Z</time>
      </trkpt>
      <trkpt lat="45.64472" lon="6.00504">
        <ele>1242</ele>
        <time>2015-02-27T10:34:14Z</time>
      </trkpt>
      <trkpt lat="45.64473" lon="6.00478">
        <ele>1243</ele>
        <time>2015-02-27T10:34:39Z</time>
      </trkpt>
      <trkpt lat="45.6447" lon="6.00453">
        <ele>1244</ele>
        <time>2015-02-27T10:35:10Z</time>
      </trkpt>
      <trkpt lat="45.64462" lon="6.00429">
        <ele>1244</ele>
        <time>2015-02-27T10:35:34Z</time>
      </trkpt>
      <trkpt lat="45.64456" lon="6.00404">
        <ele>1245</ele>
        <time>2015-02-27T10:35:56Z</time>
      </trkpt>
      <trkpt lat="45.64448" lon="6.0038">
        <ele>1246</ele>
        <time>2015-02-27T10:36:20Z</time>
      </trkpt>
      <trkpt lat="45.64437" lon="6.00359">
        <ele>1246</ele>
        <time>2015-02-27T10:36:39Z</time>
      </trkpt>
      <trkpt lat="45.64426" lon="6.00338">
        <ele>1247</ele>
        <time>2015-02-27T10:37:01Z</time>
      </trkpt>
      <trkpt lat="45.64416" lon="6.00316">
        <ele>1248</ele>
        <time>2015-02-27T10:37:21Z</time>
      </trkpt>
      <trkpt lat="45.64404" lon="6.00296">
        <ele>1249</ele>
        <time>2015-02-27T10:37:41Z</time>
      </trkpt>
      <trkpt lat="45.64392" lon="6.00276">
        <ele>1250</ele>
        <time>2015-02-27T10:38:06Z</time>
      </trkpt>
      <trkpt lat="45.64387" lon="6.0025">
        <ele>1253</ele>
        <time>2015-02-27T10:38:47Z</time>
      </trkpt>
      <trkpt lat="45.64381" lon="6.00225">
        <ele>1253</ele>
        <time>2015-02-27T10:39:05Z</time>
      </trkpt>
      <trkpt lat="45.64382" lon="6.00199">
        <ele>1254</ele>
        <time>2015-02-27T10:39:24Z</time>
      </trkpt>
      <trkpt lat="45.64374" lon="6.00175">
        <ele>1254</ele>
        <time>2015-02-27T10:39:41Z</time>
      </trkpt>
      <trkpt lat="45.64359" lon="6.00161">
        <ele>1257</ele>
        <time>2015-02-27T10:39:56Z</time>
      </trkpt>
      <trkpt lat="45.64346" lon="6.00141">
        <ele>1258</ele>
        <time>2015-02-27T10:40:14Z</time>
      </trkpt>
      <trkpt lat="45.64333" lon="6.00121">
        <ele>1259</ele>
        <time>2015-02-27T10:40:29Z</time>
      </trkpt>
      <trkpt lat="45.64322" lon="6.00099">
        <ele>1260</ele>
        <time>2015-02-27T10:40:40Z</time>
      </trkpt>
      <trkpt lat="45.64315" lon="6.00075">
        <ele>1263</ele>
        <time>2015-02-27T10:40:53Z</time>
      </trkpt>
      <trkpt lat="45.64309" lon="6.00049">
        <ele>1263</ele>
        <time>2015-02-27T10:41:05Z</time>
      </trkpt>
      <trkpt lat="45.64304" lon="6.00023">
        <ele>1264</ele>
        <time>2015-02-27T10:41:21Z</time>
      </trkpt>
      <trkpt lat="45.64296" lon="5.99999">
        <ele>1266</ele>
        <time>2015-02-27T10:42:45Z</time>
      </trkpt>
      <trkpt lat="45.64282" lon="5.99983">
        <ele>1265</ele>
        <time>2015-02-27T10:43:01Z</time>
      </trkpt>
      <trkpt lat="45.64264" lon="5.99979">
        <ele>1265</ele>
        <time>2015-02-27T10:43:28Z</time>
      </trkpt>
      <trkpt lat="45.64245" lon="5.99979">
        <ele>1264</ele>
        <time>2015-02-27T10:43:50Z</time>
      </trkpt>
      <trkpt lat="45.64227" lon="5.99984">
        <ele>1263</ele>
        <time>2015-02-27T10:44:06Z</time>
      </trkpt>
      <trkpt lat="45.64208" lon="5.99985">
        <ele>1263</ele>
        <time>2015-02-27T10:44:24Z</time>
      </trkpt>
      <trkpt lat="45.64189" lon="5.99983">
        <ele>1262</ele>
        <time>2015-02-27T10:44:34Z</time>
      </trkpt>
      <trkpt lat="45.64169" lon="5.99975">
        <ele>1262</ele>
        <time>2015-02-27T10:44:41Z</time>
      </trkpt>
      <trkpt lat="45.64152" lon="5.99967">
        <ele>1261</ele>
        <time>2015-02-27T10:44:47Z</time>
      </trkpt>
      <trkpt lat="45.64133" lon="5.99957">
        <ele>1261</ele>
        <time>2015-02-27T10:44:56Z</time>
      </trkpt>
      <trkpt lat="45.64121" lon="5.99939">
        <ele>1262</ele>
        <time>2015-02-27T10:45:14Z</time>
      </trkpt>
      <trkpt lat="45.64107" lon="5.9992">
        <ele>1262</ele>
        <time>2015-02-27T10:46:59Z</time>
      </trkpt>
      <trkpt lat="45.64099" lon="5.99897">
        <ele>1266</ele>
        <time>2015-02-27T10:47:15Z</time>
      </trkpt>
      <trkpt lat="45.64098" lon="5.99872">
        <ele>1267</ele>
        <time>2015-02-27T10:47:31Z</time>
      </trkpt>
      <trkpt lat="45.64102" lon="5.99845">
        <ele>1268</ele>
        <time>2015-02-27T10:47:48Z</time>
      </trkpt>
      <trkpt lat="45.64107" lon="5.9982">
        <ele>1271</ele>
        <time>2015-02-27T10:48:08Z</time>
      </trkpt>
      <trkpt lat="45.64115" lon="5.99797">
        <ele>1272</ele>
        <time>2015-02-27T10:48:36Z</time>
      </trkpt>
      <trkpt lat="45.64124" lon="5.99774">
        <ele>1272</ele>
        <time>2015-02-27T10:48:59Z</time>
      </trkpt>
      <trkpt lat="45.64128" lon="5.99749">
        <ele>1274</ele>
        <time>2015-02-27T10:49:18Z</time>
      </trkpt>
      <trkpt lat="45.64133" lon="5.99723">
        <ele>1274</ele>
        <time>2015-02-27T10:49:39Z</time>
      </trkpt>
      <trkpt lat="45.64133" lon="5.99696">
        <ele>1274</ele>
        <time>2015-02-27T10:49:59Z</time>
      </trkpt>
      <trkpt lat="45.6413" lon="5.99668">
        <ele>1275</ele>
        <time>2015-02-27T10:50:13Z</time>
      </trkpt>
      <trkpt lat="45.64122" lon="5.99643">
        <ele>1277</ele>
        <time>2015-02-27T10:50:24Z</time>
      </trkpt>
      <trkpt lat="45.64112" lon="5.9962">
        <ele>1277</ele>
        <time>2015-02-27T10:50:36Z</time>
      </trkpt>
      <trkpt lat="45.64101" lon="5.99599">
        <ele>1278</ele>
        <time>2015-02-27T10:50:47Z</time>
      </trkpt>
      <trkpt lat="45.64088" lon="5.99578">
        <ele>1279</ele>
        <time>2015-02-27T10:51:02Z</time>
      </trkpt>
      <trkpt lat="45.64077" lon="5.99557">
        <ele>1280</ele>
        <time>2015-02-27T10:51:14Z</time>
      </trkpt>
      <trkpt lat="45.64068" lon="5.99535">
        <ele>1280</ele>
        <time>2015-02-27T10:51:26Z</time>
      </trkpt>
      <trkpt lat="45.64062" lon="5.99509">
        <ele>1281</ele>
        <time>2015-02-27T10:51:44Z</time>
      </trkpt>
      <trkpt lat="45.64061" lon="5.99483">
        <ele>1283</ele>
        <time>2015-02-27T10:52:02Z</time>
      </trkpt>
      <trkpt lat="45.64063" lon="5.99456">
        <ele>1283</ele>
        <time>2015-02-27T10:52:19Z</time>
      </trkpt>
      <trkpt lat="45.64061" lon="5.9943">
        <ele>1284</ele>
        <time>2015-02-27T10:52:37Z</time>
      </trkpt>
      <trkpt lat="45.64062" lon="5.99403">
        <ele>1285</ele>
        <time>2015-02-27T10:52:55Z</time>
      </trkpt>
      <trkpt lat="45.64065" lon="5.99377">
        <ele>1285</ele>
        <time>2015-02-27T10:53:09Z</time>
      </trkpt>
      <trkpt lat="45.64067" lon="5.99352">
        <ele>1285</ele>
        <time>2015-02-27T10:53:24Z</time>
      </trkpt>
      <trkpt lat="45.64068" lon="5.99325">
        <ele>1286</ele>
        <time>2015-02-27T10:53:39Z</time>
      </trkpt>
      <trkpt lat="45.64072" lon="5.99298">
        <ele>1286</ele>
        <time>2015-02-27T10:53:54Z</time>
      </trkpt>
      <trkpt lat="45.6408" lon="5.99274">
        <ele>1286</ele>
        <time>2015-02-27T10:54:11Z</time>
      </trkpt>
      <trkpt lat="45.64083" lon="5.99248">
        <ele>1287</ele>
        <time>2015-02-27T10:54:30Z</time>
      </trkpt>
      <trkpt lat="45.64084" lon="5.99222">
        <ele>1285</ele>
        <time>2015-02-27T10:55:04Z</time>
      </trkpt>
      <trkpt lat="45.64085" lon="5.99194">
        <ele>1285</ele>
        <time>2015-02-27T10:55:16Z</time>
      </trkpt>
      <trkpt lat="45.64087" lon="5.99168">
        <ele>1286</ele>
        <time>2015-02-27T10:55:30Z</time>
      </trkpt>
      <trkpt lat="45.64094" lon="5.99144">
        <ele>1285</ele>
        <time>2015-02-27T10:55:43Z</time>
      </trkpt>
      <trkpt lat="45.64102" lon="5.99119">
        <ele>1284</ele>
        <time>2015-02-27T10:55:53Z</time>
      </trkpt>
      <trkpt lat="45.64106" lon="5.99093">
        <ele>1284</ele>
        <time>2015-02-27T10:55:59Z</time>
      </trkpt>
      <trkpt lat="45.64109" lon="5.99067">
        <ele>1285</ele>
        <time>2015-02-27T10:56:05Z</time>
      </trkpt>
      <trkpt lat="45.64114" lon="5.99041">
        <ele>1285</ele>
        <time>2015-02-27T10:56:14Z</time>
      </trkpt>
      <trkpt lat="45.6412" lon="5.99015">
        <ele>1285</ele>
        <time>2015-02-27T10:56:28Z</time>
      </trkpt>
      <trkpt lat="45.64122" lon="5.98989">
        <ele>1286</ele>
        <time>2015-02-27T10:56:42Z</time>
      </trkpt>
      <trkpt lat="45.64126" lon="5.98962">
        <ele>1286</ele>
        <time>2015-02-27T10:56:56Z</time>
      </trkpt>
      <trkpt lat="45.64139" lon="5.98942">
        <ele>1287</ele>
        <time>2015-02-27T10:57:09Z</time>
      </trkpt>
      <trkpt lat="45.64141" lon="5.98916">
        <ele>1289</ele>
        <time>2015-02-27T11:00:51Z</time>
      </trkpt>
      <trkpt lat="45.6413" lon="5.98893">
        <ele>1289</ele>
        <time>2015-02-27T11:00:58Z</time>
      </trkpt>
      <trkpt lat="45.64119" lon="5.98872">
        <ele>1289</ele>
        <time>2015-02-27T11:01:14Z</time>
      </trkpt>
      <trkpt lat="45.64104" lon="5.98856">
        <ele>1289</ele>
        <time>2015-02-27T11:01:33Z</time>
      </trkpt>
      <trkpt lat="45.64092" lon="5.98832">
        <ele>1288</ele>
        <time>2015-02-27T11:01:41Z</time>
      </trkpt>
      <trkpt lat="45.64082" lon="5.98809">
        <ele>1289</ele>
        <time>2015-02-27T11:01:52Z</time>
      </trkpt>
      <trkpt lat="45.64086" lon="5.98784">
        <ele>1291</ele>
        <time>2015-02-27T11:02:09Z</time>
      </trkpt>
      <trkpt lat="45.64089" lon="5.98759">
        <ele>1291</ele>
        <time>2015-02-27T11:02:30Z</time>
      </trkpt>
      <trkpt lat="45.64092" lon="5.98732">
        <ele>1293</ele>
        <time>2015-02-27T11:02:45Z</time>
      </trkpt>
      <trkpt lat="45.64099" lon="5.98706">
        <ele>1294</ele>
        <time>2015-02-27T11:02:57Z</time>
      </trkpt>
      <trkpt lat="45.64107" lon="5.98682">
        <ele>1294</ele>
        <time>2015-02-27T11:03:07Z</time>
      </trkpt>
      <trkpt lat="45.64114" lon="5.98658">
        <ele>1295</ele>
        <time>2015-02-27T11:03:17Z</time>
      </trkpt>
      <trkpt lat="45.6412" lon="5.98632">
        <ele>1296</ele>
        <time>2015-02-27T11:03:30Z</time>
      </trkpt>
      <trkpt lat="45.64119" lon="5.98605">
        <ele>1296</ele>
        <time>2015-02-27T11:03:45Z</time>
      </trkpt>
      <trkpt lat="45.64127" lon="5.98581">
        <ele>1297</ele>
        <time>2015-02-27T11:05:38Z</time>
      </trkpt>
      <trkpt lat="45.64142" lon="5.98565">
        <ele>1297</ele>
        <time>2015-02-27T11:06:44Z</time>
      </trkpt>
      <trkpt lat="45.64158" lon="5.98549">
        <ele>1297</ele>
        <time>2015-02-27T11:07:02Z</time>
      </trkpt>
      <trkpt lat="45.64172" lon="5.98534">
        <ele>1300</ele>
        <time>2015-02-27T11:07:18Z</time>
      </trkpt>
      <trkpt lat="45.64189" lon="5.98521">
        <ele>1300</ele>
        <time>2015-02-27T11:07:37Z</time>
      </trkpt>
      <trkpt lat="45.64206" lon="5.98532">
        <ele>1301</ele>
        <time>2015-02-27T11:08:02Z</time>
      </trkpt>
      <trkpt lat="45.64216" lon="5.98554">
        <ele>1301</ele>
        <time>2015-02-27T11:08:24Z</time>
      </trkpt>
      <trkpt lat="45.64224" lon="5.98577">
        <ele>1301</ele>
        <time>2015-02-27T11:08:46Z</time>
      </trkpt>
      <trkpt lat="45.64241" lon="5.98586">
        <ele>1301</ele>
        <time>2015-02-27T11:09:05Z</time>
      </trkpt>
      <trkpt lat="45.64253" lon="5.98606">
        <ele>1303</ele>
        <time>2015-02-27T11:09:20Z</time>
      </trkpt>
      <trkpt lat="45.64265" lon="5.98626">
        <ele>1304</ele>
        <time>2015-02-27T11:09:36Z</time>
      </trkpt>
      <trkpt lat="45.64279" lon="5.98643">
        <ele>1304</ele>
        <time>2015-02-27T11:09:52Z</time>
      </trkpt>
      <trkpt lat="45.64292" lon="5.98662">
        <ele>1304</ele>
        <time>2015-02-27T11:10:28Z</time>
      </trkpt>
      <trkpt lat="45.6431" lon="5.98675">
        <ele>1303</ele>
        <time>2015-02-27T11:11:00Z</time>
      </trkpt>
      <trkpt lat="45.64328" lon="5.98674">
        <ele>1304</ele>
        <time>2015-02-27T11:11:12Z</time>
      </trkpt>
      <trkpt lat="45.64344" lon="5.98663">
        <ele>1306</ele>
        <time>2015-02-27T11:11:53Z</time>
      </trkpt>
      <trkpt lat="45.64361" lon="5.98649">
        <ele>1307</ele>
        <time>2015-02-27T11:12:06Z</time>
      </trkpt>
      <trkpt lat="45.64378" lon="5.98638">
        <ele>1308</ele>
        <time>2015-02-27T11:12:18Z</time>
      </trkpt>
      <trkpt lat="45.64394" lon="5.98625">
        <ele>1308</ele>
        <time>2015-02-27T11:12:29Z</time>
      </trkpt>
      <trkpt lat="45.6441" lon="5.98613">
        <ele>1309</ele>
        <time>2015-02-27T11:12:54Z</time>
      </trkpt>
      <trkpt lat="45.64428" lon="5.98609">
        <ele>1309</ele>
        <time>2015-02-27T11:13:49Z</time>
      </trkpt>
      <trkpt lat="45.64444" lon="5.98597">
        <ele>1309</ele>
        <time>2015-02-27T11:14:02Z</time>
      </trkpt>
      <trkpt lat="45.6446" lon="5.98583">
        <ele>1310</ele>
        <time>2015-02-27T11:14:19Z</time>
      </trkpt>
      <trkpt lat="45.64476" lon="5.98569">
        <ele>1310</ele>
        <time>2015-02-27T11:14:37Z</time>
      </trkpt>
      <trkpt lat="45.64494" lon="5.9857">
        <ele>1309</ele>
        <time>2015-02-27T11:14:50Z</time>
      </trkpt>
      <trkpt lat="45.64511" lon="5.9858">
        <ele>1309</ele>
        <time>2015-02-27T11:15:04Z</time>
      </trkpt>
      <trkpt lat="45.64528" lon="5.98591">
        <ele>1311</ele>
        <time>2015-02-27T11:15:37Z</time>
      </trkpt>
      <trkpt lat="45.64546" lon="5.98595">
        <ele>1312</ele>
        <time>2015-02-27T11:15:49Z</time>
      </trkpt>
      <trkpt lat="45.64565" lon="5.98595">
        <ele>1312</ele>
        <time>2015-02-27T11:16:05Z</time>
      </trkpt>
      <trkpt lat="45.64584" lon="5.98592">
        <ele>1313</ele>
        <time>2015-02-27T11:16:21Z</time>
      </trkpt>
      <trkpt lat="45.64602" lon="5.98585">
        <ele>1314</ele>
        <time>2015-02-27T11:16:35Z</time>
      </trkpt>
      <trkpt lat="45.64619" lon="5.98576">
        <ele>1315</ele>
        <time>2015-02-27T11:17:01Z</time>
      </trkpt>
      <trkpt lat="45.64637" lon="5.98565">
        <ele>1316</ele>
        <time>2015-02-27T11:17:15Z</time>
      </trkpt>
      <trkpt lat="45.64652" lon="5.98548">
        <ele>1316</ele>
        <time>2015-02-27T11:17:31Z</time>
      </trkpt>
      <trkpt lat="45.64667" lon="5.98531">
        <ele>1320</ele>
        <time>2015-02-27T11:17:50Z</time>
      </trkpt>
      <trkpt lat="45.64683" lon="5.98518">
        <ele>1321</ele>
        <time>2015-02-27T11:18:05Z</time>
      </trkpt>
      <trkpt lat="45.64698" lon="5.98503">
        <ele>1321</ele>
        <time>2015-02-27T11:18:22Z</time>
      </trkpt>
      <trkpt lat="45.64715" lon="5.98493">
        <ele>1325</ele>
        <time>2015-02-27T11:18:39Z</time>
      </trkpt>
      <trkpt lat="45.647" lon="5.98478">
        <ele>1324</ele>
        <time>2015-02-27T11:21:59Z</time>
      </trkpt>
      <trkpt lat="45.64685" lon="5.98462">
        <ele>1324</ele>
        <time>2015-02-27T11:22:15Z</time>
      </trkpt>
      <trkpt lat="45.64671" lon="5.98445">
        <ele>1325</ele>
        <time>2015-02-27T11:22:31Z</time>
      </trkpt>
      <trkpt lat="45.64658" lon="5.98427">
        <ele>1323</ele>
        <time>2015-02-27T11:23:16Z</time>
      </trkpt>
      <trkpt lat="45.64652" lon="5.98403">
        <ele>1324</ele>
        <time>2015-02-27T11:23:21Z</time>
      </trkpt>
      <trkpt lat="45.64646" lon="5.98375">
        <ele>1324</ele>
        <time>2015-02-27T11:23:24Z</time>
      </trkpt>
      <trkpt lat="45.6464" lon="5.98348">
        <ele>1324</ele>
        <time>2015-02-27T11:23:31Z</time>
      </trkpt>
      <trkpt lat="45.64643" lon="5.98323">
        <ele>1326</ele>
        <time>2015-02-27T11:24:04Z</time>
      </trkpt>
      <trkpt lat="45.64626" lon="5.98336">
        <ele>1324</ele>
        <time>2015-02-27T11:27:08Z</time>
      </trkpt>
      <trkpt lat="45.64598" lon="5.98356">
        <ele>1323</ele>
        <time>2015-02-27T11:27:12Z</time>
      </trkpt>
      <trkpt lat="45.64615" lon="5.98347">
        <ele>1323</ele>
        <time>2015-02-27T11:27:21Z</time>
      </trkpt>
      <trkpt lat="45.64646" lon="5.98343">
        <ele>1325</ele>
        <time>2015-02-27T11:31:54Z</time>
      </trkpt>
      <trkpt lat="45.64641" lon="5.98319">
        <ele>1326</ele>
        <time>2015-02-27T11:33:02Z</time>
      </trkpt>
      <trkpt lat="45.64639" lon="5.98345">
        <ele>1324</ele>
        <time>2015-02-27T11:35:25Z</time>
      </trkpt>
      <trkpt lat="45.64646" lon="5.9837">
        <ele>1324</ele>
        <time>2015-02-27T11:35:41Z</time>
      </trkpt>
      <trkpt lat="45.64652" lon="5.98396">
        <ele>1324</ele>
        <time>2015-02-27T11:35:58Z</time>
      </trkpt>
      <trkpt lat="45.64655" lon="5.98422">
        <ele>1323</ele>
        <time>2015-02-27T11:36:16Z</time>
      </trkpt>
      <trkpt lat="45.64668" lon="5.98442">
        <ele>1325</ele>
        <time>2015-02-27T11:36:26Z</time>
      </trkpt>
      <trkpt lat="45.64688" lon="5.98459">
        <ele>1325</ele>
        <time>2015-02-27T11:36:31Z</time>
      </trkpt>
      <trkpt lat="45.64705" lon="5.98475">
        <ele>1325</ele>
        <time>2015-02-27T11:36:37Z</time>
      </trkpt>
      <trkpt lat="45.6472" lon="5.9849">
        <ele>1325</ele>
        <time>2015-02-27T11:36:45Z</time>
      </trkpt>
      <trkpt lat="45.64738" lon="5.98498">
        <ele>1325</ele>
        <time>2015-02-27T11:36:56Z</time>
      </trkpt>
      <trkpt lat="45.64748" lon="5.98519">
        <ele>1323</ele>
        <time>2015-02-27T11:37:11Z</time>
      </trkpt>
      <trkpt lat="45.64749" lon="5.98547">
        <ele>1322</ele>
        <time>2015-02-27T11:37:20Z</time>
      </trkpt>
      <trkpt lat="45.64753" lon="5.98573">
        <ele>1323</ele>
        <time>2015-02-27T11:37:30Z</time>
      </trkpt>
      <trkpt lat="45.64763" lon="5.98595">
        <ele>1321</ele>
        <time>2015-02-27T11:38:44Z</time>
      </trkpt>
      <trkpt lat="45.64771" lon="5.98618">
        <ele>1320</ele>
        <time>2015-02-27T11:38:52Z</time>
      </trkpt>
      <trkpt lat="45.64777" lon="5.98644">
        <ele>1320</ele>
        <time>2015-02-27T11:39:01Z</time>
      </trkpt>
      <trkpt lat="45.64785" lon="5.98668">
        <ele>1318</ele>
        <time>2015-02-27T11:39:08Z</time>
      </trkpt>
      <trkpt lat="45.64797" lon="5.98691">
        <ele>1318</ele>
        <time>2015-02-27T11:39:16Z</time>
      </trkpt>
      <trkpt lat="45.6481" lon="5.98709">
        <ele>1319</ele>
        <time>2015-02-27T11:39:25Z</time>
      </trkpt>
      <trkpt lat="45.64824" lon="5.98727">
        <ele>1319</ele>
        <time>2015-02-27T11:39:35Z</time>
      </trkpt>
      <trkpt lat="45.64841" lon="5.98738">
        <ele>1319</ele>
        <time>2015-02-27T11:39:48Z</time>
      </trkpt>
      <trkpt lat="45.64858" lon="5.98747">
        <ele>1319</ele>
        <time>2015-02-27T11:39:59Z</time>
      </trkpt>
      <trkpt lat="45.64876" lon="5.98758">
        <ele>1319</ele>
        <time>2015-02-27T11:40:13Z</time>
      </trkpt>
      <trkpt lat="45.64894" lon="5.9876">
        <ele>1319</ele>
        <time>2015-02-27T11:40:25Z</time>
      </trkpt>
      <trkpt lat="45.64912" lon="5.9876">
        <ele>1319</ele>
        <time>2015-02-27T11:40:37Z</time>
      </trkpt>
      <trkpt lat="45.64929" lon="5.98765">
        <ele>1321</ele>
        <time>2015-02-27T11:40:59Z</time>
      </trkpt>
      <trkpt lat="45.64949" lon="5.98767">
        <ele>1321</ele>
        <time>2015-02-27T11:41:12Z</time>
      </trkpt>
      <trkpt lat="45.64967" lon="5.98769">
        <ele>1322</ele>
        <time>2015-02-27T11:41:25Z</time>
      </trkpt>
      <trkpt lat="45.64979" lon="5.98789">
        <ele>1323</ele>
        <time>2015-02-27T11:41:48Z</time>
      </trkpt>
      <trkpt lat="45.64969" lon="5.98814">
        <ele>1323</ele>
        <time>2015-02-27T11:41:54Z</time>
      </trkpt>
      <trkpt lat="45.64951" lon="5.98828">
        <ele>1322</ele>
        <time>2015-02-27T11:41:59Z</time>
      </trkpt>
      <trkpt lat="45.64933" lon="5.9884">
        <ele>1323</ele>
        <time>2015-02-27T11:42:05Z</time>
      </trkpt>
      <trkpt lat="45.64915" lon="5.98851">
        <ele>1321</ele>
        <time>2015-02-27T11:42:18Z</time>
      </trkpt>
      <trkpt lat="45.64899" lon="5.98862">
        <ele>1321</ele>
        <time>2015-02-27T11:42:28Z</time>
      </trkpt>
      <trkpt lat="45.64883" lon="5.98876">
        <ele>1322</ele>
        <time>2015-02-27T11:42:44Z</time>
      </trkpt>
      <trkpt lat="45.64865" lon="5.98884">
        <ele>1322</ele>
        <time>2015-02-27T11:43:01Z</time>
      </trkpt>
      <trkpt lat="45.64853" lon="5.98904">
        <ele>1322</ele>
        <time>2015-02-27T11:43:17Z</time>
      </trkpt>
      <trkpt lat="45.64833" lon="5.98905">
        <ele>1322</ele>
        <time>2015-02-27T11:43:28Z</time>
      </trkpt>
      <trkpt lat="45.64814" lon="5.98906">
        <ele>1321</ele>
        <time>2015-02-27T11:43:33Z</time>
      </trkpt>
      <trkpt lat="45.64797" lon="5.98923">
        <ele>1321</ele>
        <time>2015-02-27T11:43:37Z</time>
      </trkpt>
      <trkpt lat="45.64776" lon="5.98956">
        <ele>1320</ele>
        <time>2015-02-27T11:43:40Z</time>
      </trkpt>
      <trkpt lat="45.64772" lon="5.98983">
        <ele>1320</ele>
        <time>2015-02-27T11:43:43Z</time>
      </trkpt>
      <trkpt lat="45.64773" lon="5.99009">
        <ele>1320</ele>
        <time>2015-02-27T11:43:48Z</time>
      </trkpt>
      <trkpt lat="45.64775" lon="5.99035">
        <ele>1321</ele>
        <time>2015-02-27T11:44:02Z</time>
      </trkpt>
      <trkpt lat="45.64775" lon="5.99061">
        <ele>1322</ele>
        <time>2015-02-27T11:44:18Z</time>
      </trkpt>
      <trkpt lat="45.64775" lon="5.99088">
        <ele>1323</ele>
        <time>2015-02-27T11:44:36Z</time>
      </trkpt>
      <trkpt lat="45.64776" lon="5.99116">
        <ele>1324</ele>
        <time>2015-02-27T11:44:49Z</time>
      </trkpt>
      <trkpt lat="45.64782" lon="5.9914">
        <ele>1324</ele>
        <time>2015-02-27T11:44:59Z</time>
      </trkpt>
      <trkpt lat="45.64793" lon="5.99162">
        <ele>1324</ele>
        <time>2015-02-27T11:45:10Z</time>
      </trkpt>
      <trkpt lat="45.64806" lon="5.99181">
        <ele>1325</ele>
        <time>2015-02-27T11:45:29Z</time>
      </trkpt>
      <trkpt lat="45.64823" lon="5.99194">
        <ele>1325</ele>
        <time>2015-02-27T11:45:42Z</time>
      </trkpt>
      <trkpt lat="45.64832" lon="5.99216">
        <ele>1325</ele>
        <time>2015-02-27T11:46:54Z</time>
      </trkpt>
      <trkpt lat="45.64836" lon="5.99244">
        <ele>1324</ele>
        <time>2015-02-27T11:47:05Z</time>
      </trkpt>
      <trkpt lat="45.64835" lon="5.99272">
        <ele>1325</ele>
        <time>2015-02-27T11:47:14Z</time>
      </trkpt>
      <trkpt lat="45.64836" lon="5.99301">
        <ele>1327</ele>
        <time>2015-02-27T11:47:24Z</time>
      </trkpt>
      <trkpt lat="45.64851" lon="5.9932">
        <ele>1327</ele>
        <time>2015-02-27T11:47:34Z</time>
      </trkpt>
      <trkpt lat="45.64861" lon="5.99342">
        <ele>1330</ele>
        <time>2015-02-27T11:47:51Z</time>
      </trkpt>
      <trkpt lat="45.64859" lon="5.9937">
        <ele>1331</ele>
        <time>2015-02-27T11:48:04Z</time>
      </trkpt>
      <trkpt lat="45.64871" lon="5.99391">
        <ele>1331</ele>
        <time>2015-02-27T11:48:33Z</time>
      </trkpt>
      <trkpt lat="45.64872" lon="5.99418">
        <ele>1333</ele>
        <time>2015-02-27T11:48:49Z</time>
      </trkpt>
      <trkpt lat="45.64871" lon="5.99446">
        <ele>1333</ele>
        <time>2015-02-27T11:49:06Z</time>
      </trkpt>
      <trkpt lat="45.64874" lon="5.99472">
        <ele>1333</ele>
        <time>2015-02-27T11:49:17Z</time>
      </trkpt>
      <trkpt lat="45.64879" lon="5.99498">
        <ele>1333</ele>
        <time>2015-02-27T11:49:27Z</time>
      </trkpt>
      <trkpt lat="45.6489" lon="5.9952">
        <ele>1333</ele>
        <time>2015-02-27T11:49:41Z</time>
      </trkpt>
      <trkpt lat="45.64905" lon="5.99536">
        <ele>1333</ele>
        <time>2015-02-27T11:49:55Z</time>
      </trkpt>
      <trkpt lat="45.64925" lon="5.99548">
        <ele>1333</ele>
        <time>2015-02-27T11:50:04Z</time>
      </trkpt>
      <trkpt lat="45.64943" lon="5.99556">
        <ele>1334</ele>
        <time>2015-02-27T11:50:16Z</time>
      </trkpt>
      <trkpt lat="45.64958" lon="5.99571">
        <ele>1335</ele>
        <time>2015-02-27T11:50:33Z</time>
      </trkpt>
      <trkpt lat="45.64976" lon="5.99579">
        <ele>1337</ele>
        <time>2015-02-27T11:50:48Z</time>
      </trkpt>
      <trkpt lat="45.64995" lon="5.99576">
        <ele>1340</ele>
        <time>2015-02-27T11:51:10Z</time>
      </trkpt>
      <trkpt lat="45.65014" lon="5.99579">
        <ele>1344</ele>
        <time>2015-02-27T11:51:23Z</time>
      </trkpt>
      <trkpt lat="45.65032" lon="5.99585">
        <ele>1349</ele>
        <time>2015-02-27T11:51:38Z</time>
      </trkpt>
      <trkpt lat="45.65049" lon="5.99577">
        <ele>1347</ele>
        <time>2015-02-27T11:52:03Z</time>
      </trkpt>
      <trkpt lat="45.65064" lon="5.99595">
        <ele>1352</ele>
        <time>2015-02-27T11:52:24Z</time>
      </trkpt>
      <trkpt lat="45.65082" lon="5.99597">
        <ele>1352</ele>
        <time>2015-02-27T11:52:46Z</time>
      </trkpt>
      <trkpt lat="45.65101" lon="5.99596">
        <ele>1358</ele>
        <time>2015-02-27T11:53:08Z</time>
      </trkpt>
      <trkpt lat="45.65119" lon="5.99587">
        <ele>1360</ele>
        <time>2015-02-27T11:53:19Z</time>
      </trkpt>
      <trkpt lat="45.65136" lon="5.99575">
        <ele>1358</ele>
        <time>2015-02-27T11:53:30Z</time>
      </trkpt>
      <trkpt lat="45.65151" lon="5.99559">
        <ele>1359</ele>
        <time>2015-02-27T11:53:45Z</time>
      </trkpt>
      <trkpt lat="45.65166" lon="5.9954">
        <ele>1358</ele>
        <time>2015-02-27T11:53:59Z</time>
      </trkpt>
      <trkpt lat="45.65184" lon="5.99532">
        <ele>1364</ele>
        <time>2015-02-27T11:54:16Z</time>
      </trkpt>
      <trkpt lat="45.65196" lon="5.99512">
        <ele>1364</ele>
        <time>2015-02-27T11:54:54Z</time>
      </trkpt>
      <trkpt lat="45.65214" lon="5.99508">
        <ele>1365</ele>
        <time>2015-02-27T11:58:02Z</time>
      </trkpt>
      <trkpt lat="45.65231" lon="5.99498">
        <ele>1365</ele>
        <time>2015-02-27T11:58:20Z</time>
      </trkpt>
      <trkpt lat="45.65251" lon="5.9949">
        <ele>1366</ele>
        <time>2015-02-27T11:58:30Z</time>
      </trkpt>
      <trkpt lat="45.65269" lon="5.99484">
        <ele>1366</ele>
        <time>2015-02-27T11:58:46Z</time>
      </trkpt>
      <trkpt lat="45.65287" lon="5.99479">
        <ele>1366</ele>
        <time>2015-02-27T11:58:57Z</time>
      </trkpt>
      <trkpt lat="45.65305" lon="5.99477">
        <ele>1366</ele>
        <time>2015-02-27T11:59:07Z</time>
      </trkpt>
      <trkpt lat="45.65324" lon="5.99475">
        <ele>1366</ele>
        <time>2015-02-27T11:59:27Z</time>
      </trkpt>
      <trkpt lat="45.65342" lon="5.99469">
        <ele>1364</ele>
        <time>2015-02-27T11:59:41Z</time>
      </trkpt>
      <trkpt lat="45.65359" lon="5.99476">
        <ele>1364</ele>
        <time>2015-02-27T12:00:03Z</time>
      </trkpt>
      <trkpt lat="45.65374" lon="5.99494">
        <ele>1364</ele>
        <time>2015-02-27T12:00:18Z</time>
      </trkpt>
      <trkpt lat="45.65385" lon="5.99517">
        <ele>1368</ele>
        <time>2015-02-27T12:00:31Z</time>
      </trkpt>
      <trkpt lat="45.65395" lon="5.99541">
        <ele>1370</ele>
        <time>2015-02-27T12:00:43Z</time>
      </trkpt>
      <trkpt lat="45.65408" lon="5.99563">
        <ele>1370</ele>
        <time>2015-02-27T12:00:52Z</time>
      </trkpt>
      <trkpt lat="45.65426" lon="5.9958">
        <ele>1368</ele>
        <time>2015-02-27T12:01:00Z</time>
      </trkpt>
      <trkpt lat="45.65441" lon="5.99598">
        <ele>1370</ele>
        <time>2015-02-27T12:01:06Z</time>
      </trkpt>
      <trkpt lat="45.65456" lon="5.99614">
        <ele>1370</ele>
        <time>2015-02-27T12:01:12Z</time>
      </trkpt>
      <trkpt lat="45.6547" lon="5.99631">
        <ele>1369</ele>
        <time>2015-02-27T12:01:20Z</time>
      </trkpt>
      <trkpt lat="45.65485" lon="5.9965">
        <ele>1369</ele>
        <time>2015-02-27T12:01:28Z</time>
      </trkpt>
      <trkpt lat="45.65499" lon="5.99667">
        <ele>1366</ele>
        <time>2015-02-27T12:01:39Z</time>
      </trkpt>
      <trkpt lat="45.65511" lon="5.99689">
        <ele>1367</ele>
        <time>2015-02-27T12:01:51Z</time>
      </trkpt>
      <trkpt lat="45.65528" lon="5.99701">
        <ele>1367</ele>
        <time>2015-02-27T12:02:00Z</time>
      </trkpt>
      <trkpt lat="45.65538" lon="5.99725">
        <ele>1367</ele>
        <time>2015-02-27T12:02:09Z</time>
      </trkpt>
      <trkpt lat="45.6555" lon="5.99745">
        <ele>1365</ele>
        <time>2015-02-27T12:02:17Z</time>
      </trkpt>
      <trkpt lat="45.65562" lon="5.99766">
        <ele>1366</ele>
        <time>2015-02-27T12:04:56Z</time>
      </trkpt>
      <trkpt lat="45.65572" lon="5.9979">
        <ele>1367</ele>
        <time>2015-02-27T12:05:08Z</time>
      </trkpt>
      <trkpt lat="45.65582" lon="5.99811">
        <ele>1367</ele>
        <time>2015-02-27T12:05:15Z</time>
      </trkpt>
      <trkpt lat="45.65598" lon="5.99824">
        <ele>1362</ele>
        <time>2015-02-27T12:05:29Z</time>
      </trkpt>
      <trkpt lat="45.65613" lon="5.9984">
        <ele>1365</ele>
        <time>2015-02-27T12:05:47Z</time>
      </trkpt>
      <trkpt lat="45.65626" lon="5.99862">
        <ele>1366</ele>
        <time>2015-02-27T12:05:57Z</time>
      </trkpt>
      <trkpt lat="45.65637" lon="5.99885">
        <ele>1366</ele>
        <time>2015-02-27T12:06:05Z</time>
      </trkpt>
      <trkpt lat="45.65646" lon="5.99907">
        <ele>1365</ele>
        <time>2015-02-27T12:06:15Z</time>
      </trkpt>
      <trkpt lat="45.6566" lon="5.99927">
        <ele>1367</ele>
        <time>2015-02-27T12:06:25Z</time>
      </trkpt>
      <trkpt lat="45.65671" lon="5.99948">
        <ele>1365</ele>
        <time>2015-02-27T12:06:34Z</time>
      </trkpt>
      <trkpt lat="45.65684" lon="5.99968">
        <ele>1366</ele>
        <time>2015-02-27T12:06:42Z</time>
      </trkpt>
      <trkpt lat="45.65697" lon="5.99987">
        <ele>1366</ele>
        <time>2015-02-27T12:06:50Z</time>
      </trkpt>
      <trkpt lat="45.65709" lon="6.00007">
        <ele>1368</ele>
        <time>2015-02-27T12:07:00Z</time>
      </trkpt>
      <trkpt lat="45.65722" lon="6.00026">
        <ele>1367</ele>
        <time>2015-02-27T12:07:10Z</time>
      </trkpt>
      <trkpt lat="45.65731" lon="6.00048">
        <ele>1367</ele>
        <time>2015-02-27T12:07:20Z</time>
      </trkpt>
      <trkpt lat="45.65735" lon="6.00075">
        <ele>1366</ele>
        <time>2015-02-27T12:07:37Z</time>
      </trkpt>
      <trkpt lat="45.65739" lon="6.00101">
        <ele>1371</ele>
        <time>2015-02-27T12:07:56Z</time>
      </trkpt>
      <trkpt lat="45.65749" lon="6.00122">
        <ele>1374</ele>
        <time>2015-02-27T12:08:12Z</time>
      </trkpt>
      <trkpt lat="45.6576" lon="6.00143">
        <ele>1368</ele>
        <time>2015-02-27T12:08:32Z</time>
      </trkpt>
      <trkpt lat="45.65776" lon="6.00161">
        <ele>1368</ele>
        <time>2015-02-27T12:08:50Z</time>
      </trkpt>
      <trkpt lat="45.65789" lon="6.00181">
        <ele>1374</ele>
        <time>2015-02-27T12:09:00Z</time>
      </trkpt>
      <trkpt lat="45.65798" lon="6.00204">
        <ele>1375</ele>
        <time>2015-02-27T12:09:13Z</time>
      </trkpt>
      <trkpt lat="45.65815" lon="6.00222">
        <ele>1375</ele>
        <time>2015-02-27T12:09:24Z</time>
      </trkpt>
      <trkpt lat="45.65833" lon="6.00233">
        <ele>1371</ele>
        <time>2015-02-27T12:09:32Z</time>
      </trkpt>
      <trkpt lat="45.65849" lon="6.00249">
        <ele>1372</ele>
        <time>2015-02-27T12:09:43Z</time>
      </trkpt>
      <trkpt lat="45.65864" lon="6.00264">
        <ele>1378</ele>
        <time>2015-02-27T12:10:06Z</time>
      </trkpt>
      <trkpt lat="45.65875" lon="6.00286">
        <ele>1379</ele>
        <time>2015-02-27T12:10:15Z</time>
      </trkpt>
      <trkpt lat="45.65892" lon="6.00298">
        <ele>1379</ele>
        <time>2015-02-27T12:10:25Z</time>
      </trkpt>
      <trkpt lat="45.65911" lon="6.00304">
        <ele>1379</ele>
        <time>2015-02-27T12:10:38Z</time>
      </trkpt>
      <trkpt lat="45.65925" lon="6.00323">
        <ele>1377</ele>
        <time>2015-02-27T12:10:52Z</time>
      </trkpt>
      <trkpt lat="45.65931" lon="6.00347">
        <ele>1381</ele>
        <time>2015-02-27T12:11:04Z</time>
      </trkpt>
      <trkpt lat="45.6594" lon="6.00371">
        <ele>1383</ele>
        <time>2015-02-27T12:11:17Z</time>
      </trkpt>
      <trkpt lat="45.65951" lon="6.00392">
        <ele>1384</ele>
        <time>2015-02-27T12:11:32Z</time>
      </trkpt>
      <trkpt lat="45.65967" lon="6.00404">
        <ele>1383</ele>
        <time>2015-02-27T12:13:14Z</time>
      </trkpt>
      <trkpt lat="45.65981" lon="6.00421">
        <ele>1387</ele>
        <time>2015-02-27T12:13:32Z</time>
      </trkpt>
      <trkpt lat="45.65997" lon="6.00436">
        <ele>1387</ele>
        <time>2015-02-27T12:13:40Z</time>
      </trkpt>
      <trkpt lat="45.66011" lon="6.00451">
        <ele>1383</ele>
        <time>2015-02-27T12:13:48Z</time>
      </trkpt>
      <trkpt lat="45.66026" lon="6.00468">
        <ele>1384</ele>
        <time>2015-02-27T12:13:56Z</time>
      </trkpt>
      <trkpt lat="45.66045" lon="6.00466">
        <ele>1383</ele>
        <time>2015-02-27T12:14:07Z</time>
      </trkpt>
      <trkpt lat="45.66056" lon="6.00443">
        <ele>1382</ele>
        <time>2015-02-27T12:14:18Z</time>
      </trkpt>
      <trkpt lat="45.66073" lon="6.00431">
        <ele>1380</ele>
        <time>2015-02-27T12:14:26Z</time>
      </trkpt>
      <trkpt lat="45.66091" lon="6.00423">
        <ele>1379</ele>
        <time>2015-02-27T12:14:35Z</time>
      </trkpt>
      <trkpt lat="45.66113" lon="6.00422">
        <ele>1379</ele>
        <time>2015-02-27T12:14:48Z</time>
      </trkpt>
      <trkpt lat="45.66134" lon="6.00416">
        <ele>1378</ele>
        <time>2015-02-27T12:14:53Z</time>
      </trkpt>
      <trkpt lat="45.66151" lon="6.00407">
        <ele>1378</ele>
        <time>2015-02-27T12:14:58Z</time>
      </trkpt>
      <trkpt lat="45.66168" lon="6.00396">
        <ele>1379</ele>
        <time>2015-02-27T12:15:08Z</time>
      </trkpt>
      <trkpt lat="45.66186" lon="6.00405">
        <ele>1380</ele>
        <time>2015-02-27T12:15:25Z</time>
      </trkpt>
      <trkpt lat="45.66204" lon="6.00417">
        <ele>1380</ele>
        <time>2015-02-27T12:15:38Z</time>
      </trkpt>
      <trkpt lat="45.66222" lon="6.00419">
        <ele>1381</ele>
        <time>2015-02-27T12:15:59Z</time>
      </trkpt>
      <trkpt lat="45.66232" lon="6.00443">
        <ele>1381</ele>
        <time>2015-02-27T12:16:12Z</time>
      </trkpt>
      <trkpt lat="45.66248" lon="6.00456">
        <ele>1381</ele>
        <time>2015-02-27T12:16:28Z</time>
      </trkpt>
      <trkpt lat="45.66264" lon="6.00469">
        <ele>1382</ele>
        <time>2015-02-27T12:16:50Z</time>
      </trkpt>
      <trkpt lat="45.66274" lon="6.0049">
        <ele>1382</ele>
        <time>2015-02-27T12:17:01Z</time>
      </trkpt>
      <trkpt lat="45.6626" lon="6.00474">
        <ele>1382</ele>
        <time>2015-02-27T12:26:26Z</time>
      </trkpt>
      <trkpt lat="45.66278" lon="6.00477">
        <ele>1382</ele>
        <time>2015-02-27T12:26:47Z</time>
      </trkpt>
      <trkpt lat="45.66296" lon="6.00472">
        <ele>1382</ele>
        <time>2015-02-27T12:27:01Z</time>
      </trkpt>
      <trkpt lat="45.66312" lon="6.00455">
        <ele>1382</ele>
        <time>2015-02-27T12:27:10Z</time>
      </trkpt>
      <trkpt lat="45.66324" lon="6.00435">
        <ele>1383</ele>
        <time>2015-02-27T12:27:22Z</time>
      </trkpt>
      <trkpt lat="45.66331" lon="6.0041">
        <ele>1384</ele>
        <time>2015-02-27T12:27:40Z</time>
      </trkpt>
      <trkpt lat="45.66339" lon="6.00386">
        <ele>1384</ele>
        <time>2015-02-27T12:27:55Z</time>
      </trkpt>
      <trkpt lat="45.66346" lon="6.00362">
        <ele>1385</ele>
        <time>2015-02-27T12:28:03Z</time>
      </trkpt>
      <trkpt lat="45.66341" lon="6.00334">
        <ele>1384</ele>
        <time>2015-02-27T12:28:10Z</time>
      </trkpt>
      <trkpt lat="45.66333" lon="6.00308">
        <ele>1384</ele>
        <time>2015-02-27T12:28:16Z</time>
      </trkpt>
      <trkpt lat="45.66342" lon="6.00284">
        <ele>1385</ele>
        <time>2015-02-27T12:28:28Z</time>
      </trkpt>
      <trkpt lat="45.66348" lon="6.00259">
        <ele>1386</ele>
        <time>2015-02-27T12:28:40Z</time>
      </trkpt>
      <trkpt lat="45.66345" lon="6.00233">
        <ele>1386</ele>
        <time>2015-02-27T12:28:51Z</time>
      </trkpt>
      <trkpt lat="45.66347" lon="6.00207">
        <ele>1386</ele>
        <time>2015-02-27T12:29:06Z</time>
      </trkpt>
      <trkpt lat="45.6635" lon="6.00181">
        <ele>1386</ele>
        <time>2015-02-27T12:29:20Z</time>
      </trkpt>
      <trkpt lat="45.66362" lon="6.0016">
        <ele>1385</ele>
        <time>2015-02-27T12:29:31Z</time>
      </trkpt>
      <trkpt lat="45.66371" lon="6.00133">
        <ele>1384</ele>
        <time>2015-02-27T12:29:38Z</time>
      </trkpt>
      <trkpt lat="45.66383" lon="6.00113">
        <ele>1384</ele>
        <time>2015-02-27T12:29:42Z</time>
      </trkpt>
      <trkpt lat="45.66396" lon="6.0009">
        <ele>1383</ele>
        <time>2015-02-27T12:29:47Z</time>
      </trkpt>
      <trkpt lat="45.66409" lon="6.00068">
        <ele>1382</ele>
        <time>2015-02-27T12:29:52Z</time>
      </trkpt>
      <trkpt lat="45.66429" lon="6.00062">
        <ele>1380</ele>
        <time>2015-02-27T12:29:57Z</time>
      </trkpt>
      <trkpt lat="45.66441" lon="6.00081">
        <ele>1380</ele>
        <time>2015-02-27T12:30:04Z</time>
      </trkpt>
      <trkpt lat="45.66451" lon="6.00104">
        <ele>1380</ele>
        <time>2015-02-27T12:30:10Z</time>
      </trkpt>
      <trkpt lat="45.66462" lon="6.00124">
        <ele>1379</ele>
        <time>2015-02-27T12:30:16Z</time>
      </trkpt>
      <trkpt lat="45.66479" lon="6.0014">
        <ele>1379</ele>
        <time>2015-02-27T12:30:23Z</time>
      </trkpt>
      <trkpt lat="45.66497" lon="6.00151">
        <ele>1378</ele>
        <time>2015-02-27T12:30:30Z</time>
      </trkpt>
      <trkpt lat="45.66516" lon="6.00159">
        <ele>1376</ele>
        <time>2015-02-27T12:30:42Z</time>
      </trkpt>
      <trkpt lat="45.66532" lon="6.00173">
        <ele>1377</ele>
        <time>2015-02-27T12:30:53Z</time>
      </trkpt>
      <trkpt lat="45.66544" lon="6.00196">
        <ele>1377</ele>
        <time>2015-02-27T12:31:04Z</time>
      </trkpt>
      <trkpt lat="45.66558" lon="6.00215">
        <ele>1377</ele>
        <time>2015-02-27T12:31:11Z</time>
      </trkpt>
      <trkpt lat="45.66573" lon="6.0023">
        <ele>1377</ele>
        <time>2015-02-27T12:31:19Z</time>
      </trkpt>
      <trkpt lat="45.6659" lon="6.00242">
        <ele>1376</ele>
        <time>2015-02-27T12:33:13Z</time>
      </trkpt>
      <trkpt lat="45.66608" lon="6.00255">
        <ele>1376</ele>
        <time>2015-02-27T12:33:29Z</time>
      </trkpt>
      <trkpt lat="45.66622" lon="6.00276">
        <ele>1376</ele>
        <time>2015-02-27T12:33:36Z</time>
      </trkpt>
      <trkpt lat="45.66632" lon="6.00299">
        <ele>1376</ele>
        <time>2015-02-27T12:33:42Z</time>
      </trkpt>
      <trkpt lat="45.66643" lon="6.0032">
        <ele>1375</ele>
        <time>2015-02-27T12:33:50Z</time>
      </trkpt>
      <trkpt lat="45.66655" lon="6.00342">
        <ele>1375</ele>
        <time>2015-02-27T12:33:57Z</time>
      </trkpt>
      <trkpt lat="45.66666" lon="6.00366">
        <ele>1375</ele>
        <time>2015-02-27T12:34:02Z</time>
      </trkpt>
      <trkpt lat="45.66679" lon="6.00384">
        <ele>1373</ele>
        <time>2015-02-27T12:34:11Z</time>
      </trkpt>
      <trkpt lat="45.66695" lon="6.00397">
        <ele>1372</ele>
        <time>2015-02-27T12:34:21Z</time>
      </trkpt>
      <trkpt lat="45.66711" lon="6.00414">
        <ele>1372</ele>
        <time>2015-02-27T12:34:34Z</time>
      </trkpt>
      <trkpt lat="45.66726" lon="6.00428">
        <ele>1373</ele>
        <time>2015-02-27T12:34:46Z</time>
      </trkpt>
      <trkpt lat="45.66741" lon="6.00444">
        <ele>1373</ele>
        <time>2015-02-27T12:35:00Z</time>
      </trkpt>
      <trkpt lat="45.66754" lon="6.00461">
        <ele>1372</ele>
        <time>2015-02-27T12:35:10Z</time>
      </trkpt>
      <trkpt lat="45.66768" lon="6.0048">
        <ele>1372</ele>
        <time>2015-02-27T12:35:20Z</time>
      </trkpt>
      <trkpt lat="45.66779" lon="6.00501">
        <ele>1374</ele>
        <time>2015-02-27T12:35:30Z</time>
      </trkpt>
      <trkpt lat="45.66788" lon="6.00526">
        <ele>1375</ele>
        <time>2015-02-27T12:35:41Z</time>
      </trkpt>
      <trkpt lat="45.66805" lon="6.00536">
        <ele>1375</ele>
        <time>2015-02-27T12:35:50Z</time>
      </trkpt>
      <trkpt lat="45.66822" lon="6.00552">
        <ele>1376</ele>
        <time>2015-02-27T12:36:01Z</time>
      </trkpt>
      <trkpt lat="45.66835" lon="6.0057">
        <ele>1376</ele>
        <time>2015-02-27T12:36:14Z</time>
      </trkpt>
      <trkpt lat="45.6685" lon="6.00588">
        <ele>1378</ele>
        <time>2015-02-27T12:36:26Z</time>
      </trkpt>
      <trkpt lat="45.66866" lon="6.00598">
        <ele>1377</ele>
        <time>2015-02-27T12:36:43Z</time>
      </trkpt>
      <trkpt lat="45.66881" lon="6.00614">
        <ele>1377</ele>
        <time>2015-02-27T12:36:56Z</time>
      </trkpt>
      <trkpt lat="45.66898" lon="6.00625">
        <ele>1377</ele>
        <time>2015-02-27T12:37:06Z</time>
      </trkpt>
      <trkpt lat="45.66914" lon="6.00638">
        <ele>1377</ele>
        <time>2015-02-27T12:37:18Z</time>
      </trkpt>
      <trkpt lat="45.66933" lon="6.00644">
        <ele>1375</ele>
        <time>2015-02-27T12:37:30Z</time>
      </trkpt>
      <trkpt lat="45.66948" lon="6.0066">
        <ele>1376</ele>
        <time>2015-02-27T12:37:40Z</time>
      </trkpt>
      <trkpt lat="45.66965" lon="6.00669">
        <ele>1378</ele>
        <time>2015-02-27T12:37:47Z</time>
      </trkpt>
      <trkpt lat="45.66983" lon="6.0068">
        <ele>1378</ele>
        <time>2015-02-27T12:38:01Z</time>
      </trkpt>
      <trkpt lat="45.66989" lon="6.00705">
        <ele>1378</ele>
        <time>2015-02-27T12:38:15Z</time>
      </trkpt>
      <trkpt lat="45.66997" lon="6.00729">
        <ele>1379</ele>
        <time>2015-02-27T12:38:27Z</time>
      </trkpt>
      <trkpt lat="45.67013" lon="6.00744">
        <ele>1379</ele>
        <time>2015-02-27T12:38:39Z</time>
      </trkpt>
      <trkpt lat="45.67026" lon="6.00762">
        <ele>1380</ele>
        <time>2015-02-27T12:38:51Z</time>
      </trkpt>
      <trkpt lat="45.67033" lon="6.00788">
        <ele>1380</ele>
        <time>2015-02-27T12:38:57Z</time>
      </trkpt>
      <trkpt lat="45.67052" lon="6.00791">
        <ele>1379</ele>
        <time>2015-02-27T12:39:10Z</time>
      </trkpt>
      <trkpt lat="45.6707" lon="6.00782">
        <ele>1378</ele>
        <time>2015-02-27T12:39:15Z</time>
      </trkpt>
      <trkpt lat="45.67088" lon="6.0077">
        <ele>1375</ele>
        <time>2015-02-27T12:39:28Z</time>
      </trkpt>
      <trkpt lat="45.67098" lon="6.00745">
        <ele>1376</ele>
        <time>2015-02-27T12:39:36Z</time>
      </trkpt>
      <trkpt lat="45.67102" lon="6.00719">
        <ele>1375</ele>
        <time>2015-02-27T12:39:41Z</time>
      </trkpt>
      <trkpt lat="45.67113" lon="6.00697">
        <ele>1375</ele>
        <time>2015-02-27T12:39:48Z</time>
      </trkpt>
      <trkpt lat="45.67114" lon="6.00669">
        <ele>1375</ele>
        <time>2015-02-27T12:39:54Z</time>
      </trkpt>
      <trkpt lat="45.6711" lon="6.00643">
        <ele>1375</ele>
        <time>2015-02-27T12:40:03Z</time>
      </trkpt>
      <trkpt lat="45.67111" lon="6.00617">
        <ele>1374</ele>
        <time>2015-02-27T12:40:19Z</time>
      </trkpt>
      <trkpt lat="45.67119" lon="6.00593">
        <ele>1374</ele>
        <time>2015-02-27T12:40:37Z</time>
      </trkpt>
      <trkpt lat="45.67125" lon="6.00619">
        <ele>1374</ele>
        <time>2015-02-27T12:41:09Z</time>
      </trkpt>
      <trkpt lat="45.67139" lon="6.00636">
        <ele>1374</ele>
        <time>2015-02-27T12:41:24Z</time>
      </trkpt>
      <trkpt lat="45.67153" lon="6.00652">
        <ele>1374</ele>
        <time>2015-02-27T12:41:39Z</time>
      </trkpt>
      <trkpt lat="45.67173" lon="6.00654">
        <ele>1375</ele>
        <time>2015-02-27T12:42:06Z</time>
      </trkpt>
      <trkpt lat="45.67189" lon="6.00666">
        <ele>1376</ele>
        <time>2015-02-27T12:42:31Z</time>
      </trkpt>
      <trkpt lat="45.67207" lon="6.00675">
        <ele>1377</ele>
        <time>2015-02-27T12:42:55Z</time>
      </trkpt>
      <trkpt lat="45.6722" lon="6.00695">
        <ele>1377</ele>
        <time>2015-02-27T12:43:15Z</time>
      </trkpt>
      <trkpt lat="45.6723" lon="6.00716">
        <ele>1378</ele>
        <time>2015-02-27T12:43:51Z</time>
      </trkpt>
      <trkpt lat="45.67231" lon="6.00743">
        <ele>1378</ele>
        <time>2015-02-27T12:44:22Z</time>
      </trkpt>
      <trkpt lat="45.67235" lon="6.00768">
        <ele>1377</ele>
        <time>2015-02-27T12:45:50Z</time>
      </trkpt>
      <trkpt lat="45.67241" lon="6.00795">
        <ele>1376</ele>
        <time>2015-02-27T12:46:11Z</time>
      </trkpt>
      <trkpt lat="45.67239" lon="6.00834">
        <ele>1374</ele>
        <time>2015-02-27T12:46:14Z</time>
      </trkpt>
      <trkpt lat="45.67245" lon="6.00858">
        <ele>1373</ele>
        <time>2015-02-27T12:46:21Z</time>
      </trkpt>
      <trkpt lat="45.67252" lon="6.00884">
        <ele>1376</ele>
        <time>2015-02-27T12:46:34Z</time>
      </trkpt>
      <trkpt lat="45.67259" lon="6.00909">
        <ele>1374</ele>
        <time>2015-02-27T12:46:47Z</time>
      </trkpt>
      <trkpt lat="45.67269" lon="6.00932">
        <ele>1375</ele>
        <time>2015-02-27T12:47:04Z</time>
      </trkpt>
      <trkpt lat="45.67275" lon="6.00956">
        <ele>1377</ele>
        <time>2015-02-27T12:49:42Z</time>
      </trkpt>
      <trkpt lat="45.67286" lon="6.00936">
        <ele>1377</ele>
        <time>2015-02-27T12:50:59Z</time>
      </trkpt>
      <trkpt lat="45.67301" lon="6.0092">
        <ele>1378</ele>
        <time>2015-02-27T12:51:22Z</time>
      </trkpt>
      <trkpt lat="45.67311" lon="6.00898">
        <ele>1378</ele>
        <time>2015-02-27T12:51:38Z</time>
      </trkpt>
      <trkpt lat="45.67325" lon="6.00877">
        <ele>1379</ele>
        <time>2015-02-27T12:51:55Z</time>
      </trkpt>
      <trkpt lat="45.67325" lon="6.00851">
        <ele>1380</ele>
        <time>2015-02-27T12:52:15Z</time>
      </trkpt>
      <trkpt lat="45.67326" lon="6.00825">
        <ele>1381</ele>
        <time>2015-02-27T12:52:36Z</time>
      </trkpt>
      <trkpt lat="45.6733" lon="6.00798">
        <ele>1381</ele>
        <time>2015-02-27T12:52:58Z</time>
      </trkpt>
      <trkpt lat="45.67335" lon="6.00773">
        <ele>1384</ele>
        <time>2015-02-27T12:53:24Z</time>
      </trkpt>
      <trkpt lat="45.67342" lon="6.00749">
        <ele>1383</ele>
        <time>2015-02-27T12:53:43Z</time>
      </trkpt>
      <trkpt lat="45.67337" lon="6.00724">
        <ele>1383</ele>
        <time>2015-02-27T12:54:07Z</time>
      </trkpt>
      <trkpt lat="45.6735" lon="6.00704">
        <ele>1383</ele>
        <time>2015-02-27T12:54:23Z</time>
      </trkpt>
      <trkpt lat="45.67357" lon="6.00675">
        <ele>1383</ele>
        <time>2015-02-27T12:54:28Z</time>
      </trkpt>
      <trkpt lat="45.67355" lon="6.00647">
        <ele>1382</ele>
        <time>2015-02-27T12:54:39Z</time>
      </trkpt>
      <trkpt lat="45.67352" lon="6.0062">
        <ele>1382</ele>
        <time>2015-02-27T12:54:52Z</time>
      </trkpt>
      <trkpt lat="45.67351" lon="6.00594">
        <ele>1382</ele>
        <time>2015-02-27T12:55:10Z</time>
      </trkpt>
      <trkpt lat="45.67363" lon="6.00569">
        <ele>1380</ele>
        <time>2015-02-27T12:55:21Z</time>
      </trkpt>
      <trkpt lat="45.67372" lon="6.00546">
        <ele>1379</ele>
        <time>2015-02-27T12:55:32Z</time>
      </trkpt>
      <trkpt lat="45.67373" lon="6.0052">
        <ele>1379</ele>
        <time>2015-02-27T12:55:45Z</time>
      </trkpt>
      <trkpt lat="45.6738" lon="6.00495">
        <ele>1376</ele>
        <time>2015-02-27T12:55:55Z</time>
      </trkpt>
      <trkpt lat="45.67385" lon="6.00466">
        <ele>1375</ele>
        <time>2015-02-27T12:56:03Z</time>
      </trkpt>
      <trkpt lat="45.67388" lon="6.00441">
        <ele>1374</ele>
        <time>2015-02-27T12:56:11Z</time>
      </trkpt>
      <trkpt lat="45.67389" lon="6.00413">
        <ele>1370</ele>
        <time>2015-02-27T12:56:21Z</time>
      </trkpt>
      <trkpt lat="45.67392" lon="6.00382">
        <ele>1370</ele>
        <time>2015-02-27T12:56:28Z</time>
      </trkpt>
      <trkpt lat="45.67394" lon="6.00354">
        <ele>1368</ele>
        <time>2015-02-27T12:56:34Z</time>
      </trkpt>
      <trkpt lat="45.67394" lon="6.00327">
        <ele>1366</ele>
        <time>2015-02-27T12:56:44Z</time>
      </trkpt>
      <trkpt lat="45.67393" lon="6.003">
        <ele>1365</ele>
        <time>2015-02-27T12:56:53Z</time>
      </trkpt>
      <trkpt lat="45.6739" lon="6.00274">
        <ele>1365</ele>
        <time>2015-02-27T12:57:05Z</time>
      </trkpt>
      <trkpt lat="45.67394" lon="6.00247">
        <ele>1365</ele>
        <time>2015-02-27T12:57:17Z</time>
      </trkpt>
      <trkpt lat="45.67405" lon="6.00226">
        <ele>1365</ele>
        <time>2015-02-27T12:57:31Z</time>
      </trkpt>
      <trkpt lat="45.6741" lon="6.002">
        <ele>1365</ele>
        <time>2015-02-27T12:57:48Z</time>
      </trkpt>
      <trkpt lat="45.67412" lon="6.00174">
        <ele>1365</ele>
        <time>2015-02-27T12:58:03Z</time>
      </trkpt>
      <trkpt lat="45.67428" lon="6.00162">
        <ele>1366</ele>
        <time>2015-02-27T12:58:23Z</time>
      </trkpt>
      <trkpt lat="45.67442" lon="6.00146">
        <ele>1368</ele>
        <time>2015-02-27T12:58:38Z</time>
      </trkpt>
      <trkpt lat="45.67459" lon="6.00133">
        <ele>1368</ele>
        <time>2015-02-27T12:58:56Z</time>
      </trkpt>
      <trkpt lat="45.67474" lon="6.00116">
        <ele>1369</ele>
        <time>2015-02-27T12:59:14Z</time>
      </trkpt>
      <trkpt lat="45.67489" lon="6.00098">
        <ele>1369</ele>
        <time>2015-02-27T12:59:34Z</time>
      </trkpt>
      <trkpt lat="45.67506" lon="6.00086">
        <ele>1371</ele>
        <time>2015-02-27T12:59:46Z</time>
      </trkpt>
      <trkpt lat="45.67521" lon="6.0007">
        <ele>1373</ele>
        <time>2015-02-27T13:00:09Z</time>
      </trkpt>
      <trkpt lat="45.67536" lon="6.00056">
        <ele>1374</ele>
        <time>2015-02-27T13:00:27Z</time>
      </trkpt>
      <trkpt lat="45.67552" lon="6.00042">
        <ele>1375</ele>
        <time>2015-02-27T13:00:47Z</time>
      </trkpt>
      <trkpt lat="45.67564" lon="6.00021">
        <ele>1376</ele>
        <time>2015-02-27T13:01:08Z</time>
      </trkpt>
      <trkpt lat="45.67575" lon="6.00001">
        <ele>1378</ele>
        <time>2015-02-27T13:01:27Z</time>
      </trkpt>
      <trkpt lat="45.67589" lon="5.99985">
        <ele>1380</ele>
        <time>2015-02-27T13:01:39Z</time>
      </trkpt>
      <trkpt lat="45.67603" lon="5.99965">
        <ele>1381</ele>
        <time>2015-02-27T13:02:06Z</time>
      </trkpt>
      <trkpt lat="45.67621" lon="5.99967">
        <ele>1382</ele>
        <time>2015-02-27T13:02:27Z</time>
      </trkpt>
      <trkpt lat="45.67639" lon="5.9996">
        <ele>1383</ele>
        <time>2015-02-27T13:05:32Z</time>
      </trkpt>
      <trkpt lat="45.67657" lon="5.99955">
        <ele>1383</ele>
        <time>2015-02-27T13:05:57Z</time>
      </trkpt>
      <trkpt lat="45.67675" lon="5.99952">
        <ele>1386</ele>
        <time>2015-02-27T13:06:20Z</time>
      </trkpt>
      <trkpt lat="45.67694" lon="5.9995">
        <ele>1387</ele>
        <time>2015-02-27T13:06:40Z</time>
      </trkpt>
      <trkpt lat="45.67712" lon="5.99953">
        <ele>1387</ele>
        <time>2015-02-27T13:07:11Z</time>
      </trkpt>
      <trkpt lat="45.6773" lon="5.9996">
        <ele>1388</ele>
        <time>2015-02-27T13:07:24Z</time>
      </trkpt>
      <trkpt lat="45.6775" lon="5.99961">
        <ele>1388</ele>
        <time>2015-02-27T13:07:34Z</time>
      </trkpt>
      <trkpt lat="45.67768" lon="5.99971">
        <ele>1390</ele>
        <time>2015-02-27T13:08:04Z</time>
      </trkpt>
      <trkpt lat="45.67786" lon="5.9997">
        <ele>1389</ele>
        <time>2015-02-27T13:08:25Z</time>
      </trkpt>
      <trkpt lat="45.67824" lon="5.9996">
        <ele>1389</ele>
        <time>2015-02-27T13:08:34Z</time>
      </trkpt>
      <trkpt lat="45.67839" lon="5.99945">
        <ele>1388</ele>
        <time>2015-02-27T13:08:44Z</time>
      </trkpt>
      <trkpt lat="45.67842" lon="5.9992">
        <ele>1387</ele>
        <time>2015-02-27T13:09:05Z</time>
      </trkpt>
      <trkpt lat="45.67831" lon="5.99898">
        <ele>1387</ele>
        <time>2015-02-27T13:09:18Z</time>
      </trkpt>
      <trkpt lat="45.67817" lon="5.9988">
        <ele>1388</ele>
        <time>2015-02-27T13:09:31Z</time>
      </trkpt>
      <trkpt lat="45.67803" lon="5.99863">
        <ele>1388</ele>
        <time>2015-02-27T13:09:41Z</time>
      </trkpt>
      <trkpt lat="45.67821" lon="5.9986">
        <ele>1388</ele>
        <time>2015-02-27T13:10:17Z</time>
      </trkpt>
      <trkpt lat="45.67835" lon="5.99875">
        <ele>1389</ele>
        <time>2015-02-27T13:10:28Z</time>
      </trkpt>
      <trkpt lat="45.67852" lon="5.99883">
        <ele>1388</ele>
        <time>2015-02-27T13:10:40Z</time>
      </trkpt>
      <trkpt lat="45.67871" lon="5.99885">
        <ele>1388</ele>
        <time>2015-02-27T13:10:54Z</time>
      </trkpt>
      <trkpt lat="45.67866" lon="5.9991">
        <ele>1388</ele>
        <time>2015-02-27T14:08:20Z</time>
      </trkpt>
      <trkpt lat="45.67854" lon="5.9989">
        <ele>1388</ele>
        <time>2015-02-27T14:11:19Z</time>
      </trkpt>
      <trkpt lat="45.67837" lon="5.99879">
        <ele>1388</ele>
        <time>2015-02-27T14:11:33Z</time>
      </trkpt>
      <trkpt lat="45.67823" lon="5.9986">
        <ele>1389</ele>
        <time>2015-02-27T14:11:50Z</time>
      </trkpt>
      <trkpt lat="45.67808" lon="5.99845">
        <ele>1389</ele>
        <time>2015-02-27T14:12:05Z</time>
      </trkpt>
      <trkpt lat="45.67791" lon="5.99834">
        <ele>1388</ele>
        <time>2015-02-27T14:12:28Z</time>
      </trkpt>
      <trkpt lat="45.67774" lon="5.99825">
        <ele>1390</ele>
        <time>2015-02-27T14:13:16Z</time>
      </trkpt>
      <trkpt lat="45.67755" lon="5.99821">
        <ele>1390</ele>
        <time>2015-02-27T14:13:30Z</time>
      </trkpt>
      <trkpt lat="45.67736" lon="5.99819">
        <ele>1388</ele>
        <time>2015-02-27T14:13:37Z</time>
      </trkpt>
      <trkpt lat="45.67715" lon="5.99818">
        <ele>1387</ele>
        <time>2015-02-27T14:13:43Z</time>
      </trkpt>
      <trkpt lat="45.67697" lon="5.99816">
        <ele>1386</ele>
        <time>2015-02-27T14:14:50Z</time>
      </trkpt>
      <trkpt lat="45.67677" lon="5.99814">
        <ele>1385</ele>
        <time>2015-02-27T14:15:59Z</time>
      </trkpt>
      <trkpt lat="45.67661" lon="5.99801">
        <ele>1382</ele>
        <time>2015-02-27T14:16:09Z</time>
      </trkpt>
      <trkpt lat="45.67646" lon="5.99786">
        <ele>1382</ele>
        <time>2015-02-27T14:16:17Z</time>
      </trkpt>
      <trkpt lat="45.67632" lon="5.99764">
        <ele>1382</ele>
        <time>2015-02-27T14:16:26Z</time>
      </trkpt>
      <trkpt lat="45.67625" lon="5.99738">
        <ele>1383</ele>
        <time>2015-02-27T14:16:31Z</time>
      </trkpt>
      <trkpt lat="45.67615" lon="5.99714">
        <ele>1383</ele>
        <time>2015-02-27T14:16:36Z</time>
      </trkpt>
      <trkpt lat="45.676" lon="5.99697">
        <ele>1383</ele>
        <time>2015-02-27T14:16:44Z</time>
      </trkpt>
      <trkpt lat="45.67582" lon="5.99689">
        <ele>1379</ele>
        <time>2015-02-27T14:16:51Z</time>
      </trkpt>
      <trkpt lat="45.67561" lon="5.99688">
        <ele>1378</ele>
        <time>2015-02-27T14:16:57Z</time>
      </trkpt>
      <trkpt lat="45.67543" lon="5.99678">
        <ele>1378</ele>
        <time>2015-02-27T14:17:03Z</time>
      </trkpt>
      <trkpt lat="45.67538" lon="5.99653">
        <ele>1382</ele>
        <time>2015-02-27T14:18:17Z</time>
      </trkpt>
      <trkpt lat="45.67528" lon="5.99631">
        <ele>1383</ele>
        <time>2015-02-27T14:19:00Z</time>
      </trkpt>
      <trkpt lat="45.6752" lon="5.99607">
        <ele>1384</ele>
        <time>2015-02-27T14:19:15Z</time>
      </trkpt>
      <trkpt lat="45.67509" lon="5.99585">
        <ele>1383</ele>
        <time>2015-02-27T14:19:31Z</time>
      </trkpt>
      <trkpt lat="45.67499" lon="5.99564">
        <ele>1382</ele>
        <time>2015-02-27T14:19:48Z</time>
      </trkpt>
      <trkpt lat="45.67488" lon="5.99543">
        <ele>1382</ele>
        <time>2015-02-27T14:20:06Z</time>
      </trkpt>
      <trkpt lat="45.67476" lon="5.99522">
        <ele>1382</ele>
        <time>2015-02-27T14:20:19Z</time>
      </trkpt>
      <trkpt lat="45.67468" lon="5.99497">
        <ele>1381</ele>
        <time>2015-02-27T14:20:32Z</time>
      </trkpt>
      <trkpt lat="45.67469" lon="5.99471">
        <ele>1380</ele>
        <time>2015-02-27T14:20:48Z</time>
      </trkpt>
      <trkpt lat="45.6747" lon="5.99445">
        <ele>1380</ele>
        <time>2015-02-27T14:21:18Z</time>
      </trkpt>
      <trkpt lat="45.6747" lon="5.99419">
        <ele>1379</ele>
        <time>2015-02-27T14:21:37Z</time>
      </trkpt>
      <trkpt lat="45.6747" lon="5.99393">
        <ele>1373</ele>
        <time>2015-02-27T14:21:54Z</time>
      </trkpt>
      <trkpt lat="45.67473" lon="5.99365">
        <ele>1371</ele>
        <time>2015-02-27T14:22:06Z</time>
      </trkpt>
      <trkpt lat="45.67477" lon="5.99339">
        <ele>1371</ele>
        <time>2015-02-27T14:22:24Z</time>
      </trkpt>
      <trkpt lat="45.67481" lon="5.99314">
        <ele>1367</ele>
        <time>2015-02-27T14:22:41Z</time>
      </trkpt>
      <trkpt lat="45.67483" lon="5.99288">
        <ele>1366</ele>
        <time>2015-02-27T14:23:15Z</time>
      </trkpt>
      <trkpt lat="45.67485" lon="5.99262">
        <ele>1367</ele>
        <time>2015-02-27T14:23:36Z</time>
      </trkpt>
      <trkpt lat="45.67487" lon="5.99236">
        <ele>1368</ele>
        <time>2015-02-27T14:23:53Z</time>
      </trkpt>
      <trkpt lat="45.67486" lon="5.99209">
        <ele>1369</ele>
        <time>2015-02-27T14:24:21Z</time>
      </trkpt>
      <trkpt lat="45.67484" lon="5.99183">
        <ele>1372</ele>
        <time>2015-02-27T14:24:40Z</time>
      </trkpt>
      <trkpt lat="45.67479" lon="5.99157">
        <ele>1378</ele>
        <time>2015-02-27T14:25:07Z</time>
      </trkpt>
      <trkpt lat="45.67468" lon="5.99136">
        <ele>1380</ele>
        <time>2015-02-27T14:25:27Z</time>
      </trkpt>
      <trkpt lat="45.67455" lon="5.99117">
        <ele>1381</ele>
        <time>2015-02-27T14:25:45Z</time>
      </trkpt>
      <trkpt lat="45.67439" lon="5.99105">
        <ele>1382</ele>
        <time>2015-02-27T14:26:09Z</time>
      </trkpt>
      <trkpt lat="45.67421" lon="5.99104">
        <ele>1383</ele>
        <time>2015-02-27T14:26:30Z</time>
      </trkpt>
      <trkpt lat="45.67402" lon="5.99103">
        <ele>1387</ele>
        <time>2015-02-27T14:27:00Z</time>
      </trkpt>
      <trkpt lat="45.67384" lon="5.99104">
        <ele>1388</ele>
        <time>2015-02-27T14:27:30Z</time>
      </trkpt>
      <trkpt lat="45.67367" lon="5.9912">
        <ele>1388</ele>
        <time>2015-02-27T14:28:00Z</time>
      </trkpt>
      <trkpt lat="45.67353" lon="5.99136">
        <ele>1389</ele>
        <time>2015-02-27T14:28:21Z</time>
      </trkpt>
      <trkpt lat="45.67335" lon="5.99137">
        <ele>1390</ele>
        <time>2015-02-27T14:28:50Z</time>
      </trkpt>
      <trkpt lat="45.67318" lon="5.99127">
        <ele>1399</ele>
        <time>2015-02-27T14:30:01Z</time>
      </trkpt>
      <trkpt lat="45.67301" lon="5.99117">
        <ele>1400</ele>
        <time>2015-02-27T14:30:47Z</time>
      </trkpt>
      <trkpt lat="45.67283" lon="5.99112">
        <ele>1401</ele>
        <time>2015-02-27T14:31:10Z</time>
      </trkpt>
      <trkpt lat="45.67266" lon="5.99103">
        <ele>1402</ele>
        <time>2015-02-27T14:31:37Z</time>
      </trkpt>
      <trkpt lat="45.67252" lon="5.99088">
        <ele>1404</ele>
        <time>2015-02-27T14:31:58Z</time>
      </trkpt>
      <trkpt lat="45.67233" lon="5.99085">
        <ele>1404</ele>
        <time>2015-02-27T14:32:15Z</time>
      </trkpt>
      <trkpt lat="45.67214" lon="5.99082">
        <ele>1407</ele>
        <time>2015-02-27T14:32:29Z</time>
      </trkpt>
      <trkpt lat="45.67195" lon="5.99084">
        <ele>1403</ele>
        <time>2015-02-27T14:32:46Z</time>
      </trkpt>
      <trkpt lat="45.67176" lon="5.99081">
        <ele>1405</ele>
        <time>2015-02-27T14:33:03Z</time>
      </trkpt>
      <trkpt lat="45.67158" lon="5.99082">
        <ele>1404</ele>
        <time>2015-02-27T14:33:16Z</time>
      </trkpt>
      <trkpt lat="45.67139" lon="5.99081">
        <ele>1405</ele>
        <time>2015-02-27T14:33:32Z</time>
      </trkpt>
      <trkpt lat="45.67121" lon="5.9908">
        <ele>1404</ele>
        <time>2015-02-27T14:34:08Z</time>
      </trkpt>
      <trkpt lat="45.67103" lon="5.99082">
        <ele>1404</ele>
        <time>2015-02-27T14:34:21Z</time>
      </trkpt>
      <trkpt lat="45.67084" lon="5.99078">
        <ele>1403</ele>
        <time>2015-02-27T14:34:38Z</time>
      </trkpt>
      <trkpt lat="45.6707" lon="5.99062">
        <ele>1401</ele>
        <time>2015-02-27T14:34:52Z</time>
      </trkpt>
      <trkpt lat="45.67059" lon="5.99042">
        <ele>1401</ele>
        <time>2015-02-27T14:35:14Z</time>
      </trkpt>
      <trkpt lat="45.6706" lon="5.99016">
        <ele>1402</ele>
        <time>2015-02-27T14:35:41Z</time>
      </trkpt>
      <trkpt lat="45.67069" lon="5.98993">
        <ele>1405</ele>
        <time>2015-02-27T14:36:05Z</time>
      </trkpt>
      <trkpt lat="45.67076" lon="5.98969">
        <ele>1406</ele>
        <time>2015-02-27T14:36:27Z</time>
      </trkpt>
      <trkpt lat="45.67085" lon="5.98946">
        <ele>1409</ele>
        <time>2015-02-27T14:36:59Z</time>
      </trkpt>
      <trkpt lat="45.67093" lon="5.98923">
        <ele>1409</ele>
        <time>2015-02-27T14:37:17Z</time>
      </trkpt>
      <trkpt lat="45.67105" lon="5.98902">
        <ele>1412</ele>
        <time>2015-02-27T14:37:36Z</time>
      </trkpt>
      <trkpt lat="45.67117" lon="5.98881">
        <ele>1413</ele>
        <time>2015-02-27T14:37:57Z</time>
      </trkpt>
      <trkpt lat="45.6713" lon="5.98863">
        <ele>1413</ele>
        <time>2015-02-27T14:39:26Z</time>
      </trkpt>
      <trkpt lat="45.67148" lon="5.9886">
        <ele>1414</ele>
        <time>2015-02-27T14:40:08Z</time>
      </trkpt>
      <trkpt lat="45.67165" lon="5.98851">
        <ele>1415</ele>
        <time>2015-02-27T14:40:38Z</time>
      </trkpt>
      <trkpt lat="45.6718" lon="5.98838">
        <ele>1417</ele>
        <time>2015-02-27T14:41:05Z</time>
      </trkpt>
      <trkpt lat="45.6719" lon="5.9886">
        <ele>1416</ele>
        <time>2015-02-27T14:41:32Z</time>
      </trkpt>
      <trkpt lat="45.67201" lon="5.98883">
        <ele>1416</ele>
        <time>2015-02-27T14:41:43Z</time>
      </trkpt>
      <trkpt lat="45.67213" lon="5.98903">
        <ele>1416</ele>
        <time>2015-02-27T14:41:57Z</time>
      </trkpt>
      <trkpt lat="45.67228" lon="5.98918">
        <ele>1414</ele>
        <time>2015-02-27T14:42:11Z</time>
      </trkpt>
      <trkpt lat="45.67239" lon="5.98941">
        <ele>1414</ele>
        <time>2015-02-27T14:42:21Z</time>
      </trkpt>
      <trkpt lat="45.67251" lon="5.9896">
        <ele>1414</ele>
        <time>2015-02-27T14:42:31Z</time>
      </trkpt>
      <trkpt lat="45.67269" lon="5.98966">
        <ele>1414</ele>
        <time>2015-02-27T14:42:56Z</time>
      </trkpt>
      <trkpt lat="45.67289" lon="5.98965">
        <ele>1414</ele>
        <time>2015-02-27T14:43:06Z</time>
      </trkpt>
      <trkpt lat="45.67309" lon="5.98965">
        <ele>1414</ele>
        <time>2015-02-27T14:43:13Z</time>
      </trkpt>
      <trkpt lat="45.67328" lon="5.98964">
        <ele>1414</ele>
        <time>2015-02-27T14:43:24Z</time>
      </trkpt>
      <trkpt lat="45.67346" lon="5.98959">
        <ele>1412</ele>
        <time>2015-02-27T14:43:37Z</time>
      </trkpt>
      <trkpt lat="45.67364" lon="5.98949">
        <ele>1412</ele>
        <time>2015-02-27T14:43:57Z</time>
      </trkpt>
      <trkpt lat="45.6738" lon="5.98935">
        <ele>1412</ele>
        <time>2015-02-27T14:44:06Z</time>
      </trkpt>
      <trkpt lat="45.67396" lon="5.98919">
        <ele>1412</ele>
        <time>2015-02-27T14:44:14Z</time>
      </trkpt>
      <trkpt lat="45.6741" lon="5.98903">
        <ele>1414</ele>
        <time>2015-02-27T14:44:24Z</time>
      </trkpt>
      <trkpt lat="45.67424" lon="5.98884">
        <ele>1412</ele>
        <time>2015-02-27T14:44:38Z</time>
      </trkpt>
      <trkpt lat="45.67435" lon="5.98863">
        <ele>1412</ele>
        <time>2015-02-27T14:44:46Z</time>
      </trkpt>
      <trkpt lat="45.67433" lon="5.98837">
        <ele>1413</ele>
        <time>2015-02-27T14:45:01Z</time>
      </trkpt>
      <trkpt lat="45.67437" lon="5.98808">
        <ele>1412</ele>
        <time>2015-02-27T14:45:14Z</time>
      </trkpt>
      <trkpt lat="45.67439" lon="5.9878">
        <ele>1412</ele>
        <time>2015-02-27T14:45:19Z</time>
      </trkpt>
      <trkpt lat="45.67433" lon="5.98754">
        <ele>1412</ele>
        <time>2015-02-27T14:45:25Z</time>
      </trkpt>
      <trkpt lat="45.67425" lon="5.9873">
        <ele>1412</ele>
        <time>2015-02-27T14:45:38Z</time>
      </trkpt>
      <trkpt lat="45.6742" lon="5.98705">
        <ele>1412</ele>
        <time>2015-02-27T14:45:55Z</time>
      </trkpt>
      <trkpt lat="45.67418" lon="5.98678">
        <ele>1411</ele>
        <time>2015-02-27T14:46:26Z</time>
      </trkpt>
      <trkpt lat="45.6742" lon="5.98652">
        <ele>1413</ele>
        <time>2015-02-27T14:46:57Z</time>
      </trkpt>
      <trkpt lat="45.67426" lon="5.98627">
        <ele>1415</ele>
        <time>2015-02-27T14:47:24Z</time>
      </trkpt>
      <trkpt lat="45.67436" lon="5.98604">
        <ele>1416</ele>
        <time>2015-02-27T14:48:34Z</time>
      </trkpt>
      <trkpt lat="45.67454" lon="5.98601">
        <ele>1416</ele>
        <time>2015-02-27T14:48:45Z</time>
      </trkpt>
      <trkpt lat="45.67472" lon="5.98611">
        <ele>1417</ele>
        <time>2015-02-27T14:49:07Z</time>
      </trkpt>
      <trkpt lat="45.67486" lon="5.98627">
        <ele>1416</ele>
        <time>2015-02-27T14:50:29Z</time>
      </trkpt>
      <trkpt lat="45.67502" lon="5.9864">
        <ele>1421</ele>
        <time>2015-02-27T14:51:07Z</time>
      </trkpt>
      <trkpt lat="45.67519" lon="5.98653">
        <ele>1421</ele>
        <time>2015-02-27T14:51:24Z</time>
      </trkpt>
      <trkpt lat="45.67532" lon="5.98672">
        <ele>1420</ele>
        <time>2015-02-27T14:51:36Z</time>
      </trkpt>
      <trkpt lat="45.67539" lon="5.98696">
        <ele>1420</ele>
        <time>2015-02-27T14:52:03Z</time>
      </trkpt>
      <trkpt lat="45.67544" lon="5.98722">
        <ele>1421</ele>
        <time>2015-02-27T14:52:21Z</time>
      </trkpt>
      <trkpt lat="45.67549" lon="5.98747">
        <ele>1421</ele>
        <time>2015-02-27T14:52:42Z</time>
      </trkpt>
      <trkpt lat="45.67551" lon="5.98773">
        <ele>1420</ele>
        <time>2015-02-27T14:52:59Z</time>
      </trkpt>
      <trkpt lat="45.67552" lon="5.98799">
        <ele>1419</ele>
        <time>2015-02-27T14:53:16Z</time>
      </trkpt>
      <trkpt lat="45.67563" lon="5.98821">
        <ele>1421</ele>
        <time>2015-02-27T14:53:35Z</time>
      </trkpt>
      <trkpt lat="45.67572" lon="5.98845">
        <ele>1421</ele>
        <time>2015-02-27T14:53:49Z</time>
      </trkpt>
      <trkpt lat="45.67585" lon="5.98866">
        <ele>1425</ele>
        <time>2015-02-27T14:54:01Z</time>
      </trkpt>
      <trkpt lat="45.67597" lon="5.98886">
        <ele>1424</ele>
        <time>2015-02-27T14:54:17Z</time>
      </trkpt>
      <trkpt lat="45.67605" lon="5.98909">
        <ele>1424</ele>
        <time>2015-02-27T14:54:36Z</time>
      </trkpt>
      <trkpt lat="45.6762" lon="5.98925">
        <ele>1420</ele>
        <time>2015-02-27T14:54:52Z</time>
      </trkpt>
      <trkpt lat="45.67641" lon="5.98932">
        <ele>1421</ele>
        <time>2015-02-27T14:55:02Z</time>
      </trkpt>
      <trkpt lat="45.6766" lon="5.98937">
        <ele>1422</ele>
        <time>2015-02-27T14:55:09Z</time>
      </trkpt>
      <trkpt lat="45.67674" lon="5.98955">
        <ele>1424</ele>
        <time>2015-02-27T14:55:25Z</time>
      </trkpt>
      <trkpt lat="45.6769" lon="5.9897">
        <ele>1424</ele>
        <time>2015-02-27T14:55:41Z</time>
      </trkpt>
      <trkpt lat="45.67708" lon="5.9898">
        <ele>1424</ele>
        <time>2015-02-27T14:55:54Z</time>
      </trkpt>
      <trkpt lat="45.67722" lon="5.98997">
        <ele>1425</ele>
        <time>2015-02-27T14:56:06Z</time>
      </trkpt>
      <trkpt lat="45.67736" lon="5.99014">
        <ele>1422</ele>
        <time>2015-02-27T14:56:22Z</time>
      </trkpt>
      <trkpt lat="45.67749" lon="5.99032">
        <ele>1422</ele>
        <time>2015-02-27T14:56:45Z</time>
      </trkpt>
      <trkpt lat="45.67764" lon="5.99046">
        <ele>1423</ele>
        <time>2015-02-27T14:57:01Z</time>
      </trkpt>
      <trkpt lat="45.67782" lon="5.99057">
        <ele>1423</ele>
        <time>2015-02-27T14:57:17Z</time>
      </trkpt>
      <trkpt lat="45.67798" lon="5.99071">
        <ele>1423</ele>
        <time>2015-02-27T14:57:42Z</time>
      </trkpt>
      <trkpt lat="45.67809" lon="5.99092">
        <ele>1421</ele>
        <time>2015-02-27T14:57:55Z</time>
      </trkpt>
      <trkpt lat="45.67823" lon="5.99112">
        <ele>1421</ele>
        <time>2015-02-27T14:58:05Z</time>
      </trkpt>
      <trkpt lat="45.67843" lon="5.99113">
        <ele>1421</ele>
        <time>2015-02-27T14:58:20Z</time>
      </trkpt>
      <trkpt lat="45.67858" lon="5.99125">
        <ele>1421</ele>
        <time>2015-02-27T14:58:41Z</time>
      </trkpt>
      <trkpt lat="45.67877" lon="5.9913">
        <ele>1421</ele>
        <time>2015-02-27T14:59:01Z</time>
      </trkpt>
      <trkpt lat="45.67896" lon="5.99132">
        <ele>1421</ele>
        <time>2015-02-27T14:59:11Z</time>
      </trkpt>
      <trkpt lat="45.67914" lon="5.99142">
        <ele>1420</ele>
        <time>2015-02-27T14:59:19Z</time>
      </trkpt>
      <trkpt lat="45.67925" lon="5.99163">
        <ele>1420</ele>
        <time>2015-02-27T14:59:33Z</time>
      </trkpt>
      <trkpt lat="45.67936" lon="5.99187">
        <ele>1418</ele>
        <time>2015-02-27T14:59:42Z</time>
      </trkpt>
      <trkpt lat="45.67947" lon="5.99208">
        <ele>1418</ele>
        <time>2015-02-27T14:59:49Z</time>
      </trkpt>
      <trkpt lat="45.67961" lon="5.99228">
        <ele>1417</ele>
        <time>2015-02-27T15:00:02Z</time>
      </trkpt>
      <trkpt lat="45.67978" lon="5.99242">
        <ele>1417</ele>
        <time>2015-02-27T15:00:19Z</time>
      </trkpt>
      <trkpt lat="45.67999" lon="5.9924">
        <ele>1416</ele>
        <time>2015-02-27T15:00:40Z</time>
      </trkpt>
      <trkpt lat="45.68014" lon="5.99257">
        <ele>1413</ele>
        <time>2015-02-27T15:00:47Z</time>
      </trkpt>
      <trkpt lat="45.68015" lon="5.99284">
        <ele>1411</ele>
        <time>2015-02-27T15:00:57Z</time>
      </trkpt>
      <trkpt lat="45.68009" lon="5.99311">
        <ele>1410</ele>
        <time>2015-02-27T15:01:09Z</time>
      </trkpt>
      <trkpt lat="45.67998" lon="5.99335">
        <ele>1409</ele>
        <time>2015-02-27T15:01:15Z</time>
      </trkpt>
      <trkpt lat="45.67993" lon="5.99361">
        <ele>1409</ele>
        <time>2015-02-27T15:02:06Z</time>
      </trkpt>
      <trkpt lat="45.67999" lon="5.99386">
        <ele>1408</ele>
        <time>2015-02-27T15:02:27Z</time>
      </trkpt>
      <trkpt lat="45.68001" lon="5.99413">
        <ele>1405</ele>
        <time>2015-02-27T15:02:38Z</time>
      </trkpt>
      <trkpt lat="45.68012" lon="5.99435">
        <ele>1403</ele>
        <time>2015-02-27T15:02:45Z</time>
      </trkpt>
      <trkpt lat="45.68025" lon="5.99454">
        <ele>1401</ele>
        <time>2015-02-27T15:03:00Z</time>
      </trkpt>
      <trkpt lat="45.68031" lon="5.99479">
        <ele>1400</ele>
        <time>2015-02-27T15:03:18Z</time>
      </trkpt>
      <trkpt lat="45.68039" lon="5.99505">
        <ele>1397</ele>
        <time>2015-02-27T15:03:33Z</time>
      </trkpt>
      <trkpt lat="45.6804" lon="5.99534">
        <ele>1396</ele>
        <time>2015-02-27T15:03:39Z</time>
      </trkpt>
      <trkpt lat="45.68035" lon="5.99559">
        <ele>1396</ele>
        <time>2015-02-27T15:03:53Z</time>
      </trkpt>
      <trkpt lat="45.68029" lon="5.99584">
        <ele>1393</ele>
        <time>2015-02-27T15:04:07Z</time>
      </trkpt>
      <trkpt lat="45.68017" lon="5.99605">
        <ele>1393</ele>
        <time>2015-02-27T15:04:17Z</time>
      </trkpt>
      <trkpt lat="45.67999" lon="5.99615">
        <ele>1395</ele>
        <time>2015-02-27T15:04:31Z</time>
      </trkpt>
      <trkpt lat="45.6798" lon="5.99614">
        <ele>1395</ele>
        <time>2015-02-27T15:04:55Z</time>
      </trkpt>
      <trkpt lat="45.67965" lon="5.99598">
        <ele>1396</ele>
        <time>2015-02-27T15:05:35Z</time>
      </trkpt>
      <trkpt lat="45.67948" lon="5.99588">
        <ele>1396</ele>
        <time>2015-02-27T15:05:48Z</time>
      </trkpt>
      <trkpt lat="45.67939" lon="5.99612">
        <ele>1396</ele>
        <time>2015-02-27T15:06:15Z</time>
      </trkpt>
      <trkpt lat="45.67921" lon="5.99622">
        <ele>1396</ele>
        <time>2015-02-27T15:06:40Z</time>
      </trkpt>
      <trkpt lat="45.67902" lon="5.99618">
        <ele>1398</ele>
        <time>2015-02-27T15:06:50Z</time>
      </trkpt>
      <trkpt lat="45.67887" lon="5.99604">
        <ele>1398</ele>
        <time>2015-02-27T15:07:10Z</time>
      </trkpt>
      <trkpt lat="45.67878" lon="5.9958">
        <ele>1400</ele>
        <time>2015-02-27T15:07:34Z</time>
      </trkpt>
      <trkpt lat="45.67864" lon="5.99564">
        <ele>1401</ele>
        <time>2015-02-27T15:07:54Z</time>
      </trkpt>
      <trkpt lat="45.67845" lon="5.99558">
        <ele>1401</ele>
        <time>2015-02-27T15:08:22Z</time>
      </trkpt>
      <trkpt lat="45.67828" lon="5.99552">
        <ele>1400</ele>
        <time>2015-02-27T15:08:34Z</time>
      </trkpt>
      <trkpt lat="45.6781" lon="5.99554">
        <ele>1400</ele>
        <time>2015-02-27T15:08:49Z</time>
      </trkpt>
      <trkpt lat="45.67794" lon="5.99567">
        <ele>1400</ele>
        <time>2015-02-27T15:09:16Z</time>
      </trkpt>
      <trkpt lat="45.6779" lon="5.99594">
        <ele>1398</ele>
        <time>2015-02-27T15:09:28Z</time>
      </trkpt>
      <trkpt lat="45.67798" lon="5.99618">
        <ele>1398</ele>
        <time>2015-02-27T15:09:51Z</time>
      </trkpt>
      <trkpt lat="45.67809" lon="5.99639">
        <ele>1397</ele>
        <time>2015-02-27T15:10:09Z</time>
      </trkpt>
      <trkpt lat="45.67822" lon="5.99662">
        <ele>1397</ele>
        <time>2015-02-27T15:12:11Z</time>
      </trkpt>
      <trkpt lat="45.67828" lon="5.99692">
        <ele>1396</ele>
        <time>2015-02-27T15:12:17Z</time>
      </trkpt>
      <trkpt lat="45.67827" lon="5.9972">
        <ele>1395</ele>
        <time>2015-02-27T15:12:21Z</time>
      </trkpt>
      <trkpt lat="45.67824" lon="5.99746">
        <ele>1394</ele>
        <time>2015-02-27T15:12:29Z</time>
      </trkpt>
      <trkpt lat="45.67828" lon="5.99772">
        <ele>1393</ele>
        <time>2015-02-27T15:12:40Z</time>
      </trkpt>
      <trkpt lat="45.67816" lon="5.99793">
        <ele>1392</ele>
        <time>2015-02-27T15:13:04Z</time>
      </trkpt>
      <trkpt lat="45.67798" lon="5.99798">
        <ele>1391</ele>
        <time>2015-02-27T15:13:15Z</time>
      </trkpt>
      <trkpt lat="45.67781" lon="5.99807">
        <ele>1391</ele>
        <time>2015-02-27T15:13:20Z</time>
      </trkpt>
      <trkpt lat="45.67762" lon="5.99811">
        <ele>1390</ele>
        <time>2015-02-27T15:13:26Z</time>
      </trkpt>
      <trkpt lat="45.67742" lon="5.99812">
        <ele>1388</ele>
        <time>2015-02-27T15:13:34Z</time>
      </trkpt>
      <trkpt lat="45.67722" lon="5.99805">
        <ele>1388</ele>
        <time>2015-02-27T15:13:41Z</time>
      </trkpt>
      <trkpt lat="45.67704" lon="5.99813">
        <ele>1387</ele>
        <time>2015-02-27T15:13:52Z</time>
      </trkpt>
      <trkpt lat="45.67686" lon="5.99811">
        <ele>1386</ele>
        <time>2015-02-27T15:14:20Z</time>
      </trkpt>
      <trkpt lat="45.67668" lon="5.99804">
        <ele>1386</ele>
        <time>2015-02-27T15:14:31Z</time>
      </trkpt>
      <trkpt lat="45.67652" lon="5.99789">
        <ele>1382</ele>
        <time>2015-02-27T15:14:42Z</time>
      </trkpt>
      <trkpt lat="45.6764" lon="5.99766">
        <ele>1382</ele>
        <time>2015-02-27T15:14:53Z</time>
      </trkpt>
      <trkpt lat="45.6763" lon="5.99745">
        <ele>1384</ele>
        <time>2015-02-27T15:15:00Z</time>
      </trkpt>
      <trkpt lat="45.67617" lon="5.99724">
        <ele>1383</ele>
        <time>2015-02-27T15:15:05Z</time>
      </trkpt>
      <trkpt lat="45.676" lon="5.99706">
        <ele>1383</ele>
        <time>2015-02-27T15:15:12Z</time>
      </trkpt>
      <trkpt lat="45.67585" lon="5.99692">
        <ele>1382</ele>
        <time>2015-02-27T15:15:17Z</time>
      </trkpt>
      <trkpt lat="45.67565" lon="5.99678">
        <ele>1379</ele>
        <time>2015-02-27T15:15:22Z</time>
      </trkpt>
      <trkpt lat="45.67546" lon="5.9967">
        <ele>1378</ele>
        <time>2015-02-27T15:15:27Z</time>
      </trkpt>
      <trkpt lat="45.67528" lon="5.99668">
        <ele>1377</ele>
        <time>2015-02-27T15:15:53Z</time>
      </trkpt>
      <trkpt lat="45.6751" lon="5.99663">
        <ele>1379</ele>
        <time>2015-02-27T15:16:01Z</time>
      </trkpt>
      <trkpt lat="45.67491" lon="5.99663">
        <ele>1378</ele>
        <time>2015-02-27T15:16:07Z</time>
      </trkpt>
      <trkpt lat="45.67473" lon="5.99656">
        <ele>1379</ele>
        <time>2015-02-27T15:16:15Z</time>
      </trkpt>
      <trkpt lat="45.67456" lon="5.99645">
        <ele>1380</ele>
        <time>2015-02-27T15:16:27Z</time>
      </trkpt>
      <trkpt lat="45.67437" lon="5.99642">
        <ele>1380</ele>
        <time>2015-02-27T15:16:39Z</time>
      </trkpt>
      <trkpt lat="45.67421" lon="5.99625">
        <ele>1380</ele>
        <time>2015-02-27T15:16:45Z</time>
      </trkpt>
      <trkpt lat="45.67408" lon="5.99607">
        <ele>1380</ele>
        <time>2015-02-27T15:16:57Z</time>
      </trkpt>
      <trkpt lat="45.67394" lon="5.9959">
        <ele>1380</ele>
        <time>2015-02-27T15:17:16Z</time>
      </trkpt>
      <trkpt lat="45.67376" lon="5.99585">
        <ele>1380</ele>
        <time>2015-02-27T15:17:32Z</time>
      </trkpt>
      <trkpt lat="45.67357" lon="5.99584">
        <ele>1381</ele>
        <time>2015-02-27T15:17:58Z</time>
      </trkpt>
      <trkpt lat="45.67341" lon="5.99596">
        <ele>1381</ele>
        <time>2015-02-27T15:18:07Z</time>
      </trkpt>
      <trkpt lat="45.67324" lon="5.9961">
        <ele>1382</ele>
        <time>2015-02-27T15:18:14Z</time>
      </trkpt>
      <trkpt lat="45.67306" lon="5.99611">
        <ele>1382</ele>
        <time>2015-02-27T15:18:22Z</time>
      </trkpt>
      <trkpt lat="45.67286" lon="5.99609">
        <ele>1382</ele>
        <time>2015-02-27T15:18:31Z</time>
      </trkpt>
      <trkpt lat="45.67269" lon="5.99597">
        <ele>1382</ele>
        <time>2015-02-27T15:18:45Z</time>
      </trkpt>
      <trkpt lat="45.67251" lon="5.99595">
        <ele>1382</ele>
        <time>2015-02-27T15:19:01Z</time>
      </trkpt>
      <trkpt lat="45.67233" lon="5.996">
        <ele>1384</ele>
        <time>2015-02-27T15:19:18Z</time>
      </trkpt>
      <trkpt lat="45.67219" lon="5.99583">
        <ele>1384</ele>
        <time>2015-02-27T15:19:36Z</time>
      </trkpt>
      <trkpt lat="45.67212" lon="5.99558">
        <ele>1384</ele>
        <time>2015-02-27T15:20:02Z</time>
      </trkpt>
      <trkpt lat="45.67206" lon="5.99533">
        <ele>1384</ele>
        <time>2015-02-27T15:20:19Z</time>
      </trkpt>
      <trkpt lat="45.6719" lon="5.99518">
        <ele>1384</ele>
        <time>2015-02-27T15:20:39Z</time>
      </trkpt>
      <trkpt lat="45.67176" lon="5.99501">
        <ele>1384</ele>
        <time>2015-02-27T15:20:58Z</time>
      </trkpt>
      <trkpt lat="45.6717" lon="5.99475">
        <ele>1385</ele>
        <time>2015-02-27T15:21:10Z</time>
      </trkpt>
      <trkpt lat="45.67163" lon="5.99451">
        <ele>1385</ele>
        <time>2015-02-27T15:21:27Z</time>
      </trkpt>
      <trkpt lat="45.67155" lon="5.99428">
        <ele>1385</ele>
        <time>2015-02-27T15:21:40Z</time>
      </trkpt>
      <trkpt lat="45.67141" lon="5.99408">
        <ele>1386</ele>
        <time>2015-02-27T15:21:51Z</time>
      </trkpt>
      <trkpt lat="45.67124" lon="5.99391">
        <ele>1386</ele>
        <time>2015-02-27T15:21:58Z</time>
      </trkpt>
      <trkpt lat="45.67112" lon="5.99372">
        <ele>1386</ele>
        <time>2015-02-27T15:22:04Z</time>
      </trkpt>
      <trkpt lat="45.671" lon="5.99349">
        <ele>1387</ele>
        <time>2015-02-27T15:22:17Z</time>
      </trkpt>
      <trkpt lat="45.67087" lon="5.9933">
        <ele>1387</ele>
        <time>2015-02-27T15:22:28Z</time>
      </trkpt>
      <trkpt lat="45.67072" lon="5.99314">
        <ele>1387</ele>
        <time>2015-02-27T15:22:39Z</time>
      </trkpt>
      <trkpt lat="45.67057" lon="5.99295">
        <ele>1387</ele>
        <time>2015-02-27T15:22:46Z</time>
      </trkpt>
      <trkpt lat="45.67045" lon="5.99272">
        <ele>1388</ele>
        <time>2015-02-27T15:22:55Z</time>
      </trkpt>
      <trkpt lat="45.67035" lon="5.99248">
        <ele>1390</ele>
        <time>2015-02-27T15:23:03Z</time>
      </trkpt>
      <trkpt lat="45.67022" lon="5.99229">
        <ele>1390</ele>
        <time>2015-02-27T15:23:09Z</time>
      </trkpt>
      <trkpt lat="45.67005" lon="5.99215">
        <ele>1390</ele>
        <time>2015-02-27T15:23:15Z</time>
      </trkpt>
      <trkpt lat="45.6699" lon="5.99201">
        <ele>1388</ele>
        <time>2015-02-27T15:23:21Z</time>
      </trkpt>
      <trkpt lat="45.66975" lon="5.99183">
        <ele>1388</ele>
        <time>2015-02-27T15:23:29Z</time>
      </trkpt>
      <trkpt lat="45.6696" lon="5.99166">
        <ele>1389</ele>
        <time>2015-02-27T15:23:41Z</time>
      </trkpt>
      <trkpt lat="45.66944" lon="5.99153">
        <ele>1389</ele>
        <time>2015-02-27T15:23:55Z</time>
      </trkpt>
      <trkpt lat="45.66926" lon="5.99145">
        <ele>1389</ele>
        <time>2015-02-27T15:24:13Z</time>
      </trkpt>
      <trkpt lat="45.66907" lon="5.99137">
        <ele>1386</ele>
        <time>2015-02-27T15:24:29Z</time>
      </trkpt>
      <trkpt lat="45.6689" lon="5.99125">
        <ele>1386</ele>
        <time>2015-02-27T15:24:47Z</time>
      </trkpt>
      <trkpt lat="45.66872" lon="5.99113">
        <ele>1386</ele>
        <time>2015-02-27T15:24:57Z</time>
      </trkpt>
      <trkpt lat="45.66856" lon="5.99102">
        <ele>1386</ele>
        <time>2015-02-27T15:25:05Z</time>
      </trkpt>
      <trkpt lat="45.66841" lon="5.99087">
        <ele>1385</ele>
        <time>2015-02-27T15:25:27Z</time>
      </trkpt>
      <trkpt lat="45.66838" lon="5.9906">
        <ele>1387</ele>
        <time>2015-02-27T15:26:49Z</time>
      </trkpt>
      <trkpt lat="45.6683" lon="5.99037">
        <ele>1386</ele>
        <time>2015-02-27T15:26:58Z</time>
      </trkpt>
      <trkpt lat="45.6683" lon="5.9901">
        <ele>1388</ele>
        <time>2015-02-27T15:27:08Z</time>
      </trkpt>
      <trkpt lat="45.66836" lon="5.98984">
        <ele>1391</ele>
        <time>2015-02-27T15:27:22Z</time>
      </trkpt>
      <trkpt lat="45.66829" lon="5.9896">
        <ele>1389</ele>
        <time>2015-02-27T15:27:31Z</time>
      </trkpt>
      <trkpt lat="45.66814" lon="5.98944">
        <ele>1390</ele>
        <time>2015-02-27T15:27:39Z</time>
      </trkpt>
      <trkpt lat="45.66799" lon="5.98927">
        <ele>1389</ele>
        <time>2015-02-27T15:27:48Z</time>
      </trkpt>
      <trkpt lat="45.66782" lon="5.98916">
        <ele>1390</ele>
        <time>2015-02-27T15:27:57Z</time>
      </trkpt>
      <trkpt lat="45.66765" lon="5.989">
        <ele>1389</ele>
        <time>2015-02-27T15:28:04Z</time>
      </trkpt>
      <trkpt lat="45.6675" lon="5.98882">
        <ele>1388</ele>
        <time>2015-02-27T15:28:12Z</time>
      </trkpt>
      <trkpt lat="45.66738" lon="5.98859">
        <ele>1389</ele>
        <time>2015-02-27T15:28:21Z</time>
      </trkpt>
      <trkpt lat="45.66728" lon="5.98836">
        <ele>1389</ele>
        <time>2015-02-27T15:28:32Z</time>
      </trkpt>
      <trkpt lat="45.66716" lon="5.98812">
        <ele>1389</ele>
        <time>2015-02-27T15:28:41Z</time>
      </trkpt>
      <trkpt lat="45.66706" lon="5.98789">
        <ele>1388</ele>
        <time>2015-02-27T15:28:53Z</time>
      </trkpt>
      <trkpt lat="45.66699" lon="5.98764">
        <ele>1388</ele>
        <time>2015-02-27T15:29:04Z</time>
      </trkpt>
      <trkpt lat="45.66694" lon="5.98736">
        <ele>1386</ele>
        <time>2015-02-27T15:29:11Z</time>
      </trkpt>
      <trkpt lat="45.66688" lon="5.9871">
        <ele>1385</ele>
        <time>2015-02-27T15:29:16Z</time>
      </trkpt>
      <trkpt lat="45.66684" lon="5.98684">
        <ele>1384</ele>
        <time>2015-02-27T15:29:21Z</time>
      </trkpt>
      <trkpt lat="45.66687" lon="5.98659">
        <ele>1382</ele>
        <time>2015-02-27T15:29:30Z</time>
      </trkpt>
      <trkpt lat="45.66678" lon="5.98632">
        <ele>1383</ele>
        <time>2015-02-27T15:29:42Z</time>
      </trkpt>
      <trkpt lat="45.66669" lon="5.98608">
        <ele>1382</ele>
        <time>2015-02-27T15:29:52Z</time>
      </trkpt>
      <trkpt lat="45.66662" lon="5.98583">
        <ele>1378</ele>
        <time>2015-02-27T15:30:01Z</time>
      </trkpt>
      <trkpt lat="45.66656" lon="5.98556">
        <ele>1378</ele>
        <time>2015-02-27T15:30:11Z</time>
      </trkpt>
      <trkpt lat="45.66644" lon="5.98535">
        <ele>1377</ele>
        <time>2015-02-27T15:30:20Z</time>
      </trkpt>
      <trkpt lat="45.66631" lon="5.98514">
        <ele>1377</ele>
        <time>2015-02-27T15:30:30Z</time>
      </trkpt>
      <trkpt lat="45.66617" lon="5.98495">
        <ele>1376</ele>
        <time>2015-02-27T15:30:39Z</time>
      </trkpt>
      <trkpt lat="45.66604" lon="5.98477">
        <ele>1376</ele>
        <time>2015-02-27T15:30:47Z</time>
      </trkpt>
      <trkpt lat="45.6659" lon="5.98461">
        <ele>1376</ele>
        <time>2015-02-27T15:30:56Z</time>
      </trkpt>
      <trkpt lat="45.66574" lon="5.98444">
        <ele>1376</ele>
        <time>2015-02-27T15:31:07Z</time>
      </trkpt>
      <trkpt lat="45.66558" lon="5.98432">
        <ele>1377</ele>
        <time>2015-02-27T15:31:17Z</time>
      </trkpt>
      <trkpt lat="45.66541" lon="5.98417">
        <ele>1377</ele>
        <time>2015-02-27T15:31:27Z</time>
      </trkpt>
      <trkpt lat="45.66526" lon="5.98403">
        <ele>1380</ele>
        <time>2015-02-27T15:31:37Z</time>
      </trkpt>
      <trkpt lat="45.66508" lon="5.98395">
        <ele>1380</ele>
        <time>2015-02-27T15:31:50Z</time>
      </trkpt>
      <trkpt lat="45.66492" lon="5.98384">
        <ele>1382</ele>
        <time>2015-02-27T15:32:12Z</time>
      </trkpt>
      <trkpt lat="45.66473" lon="5.98389">
        <ele>1382</ele>
        <time>2015-02-27T15:33:03Z</time>
      </trkpt>
      <trkpt lat="45.66457" lon="5.98401">
        <ele>1383</ele>
        <time>2015-02-27T15:33:20Z</time>
      </trkpt>
      <trkpt lat="45.66441" lon="5.98415">
        <ele>1382</ele>
        <time>2015-02-27T15:33:37Z</time>
      </trkpt>
      <trkpt lat="45.66424" lon="5.98426">
        <ele>1381</ele>
        <time>2015-02-27T15:33:52Z</time>
      </trkpt>
      <trkpt lat="45.66408" lon="5.98438">
        <ele>1382</ele>
        <time>2015-02-27T15:34:08Z</time>
      </trkpt>
      <trkpt lat="45.66392" lon="5.98454">
        <ele>1382</ele>
        <time>2015-02-27T15:34:23Z</time>
      </trkpt>
      <trkpt lat="45.66374" lon="5.98448">
        <ele>1383</ele>
        <time>2015-02-27T15:38:37Z</time>
      </trkpt>
      <trkpt lat="45.66367" lon="5.98425">
        <ele>1383</ele>
        <time>2015-02-27T15:38:56Z</time>
      </trkpt>
      <trkpt lat="45.66364" lon="5.98399">
        <ele>1384</ele>
        <time>2015-02-27T15:40:04Z</time>
      </trkpt>
      <trkpt lat="45.6635" lon="5.98379">
        <ele>1385</ele>
        <time>2015-02-27T15:40:19Z</time>
      </trkpt>
      <trkpt lat="45.66339" lon="5.9836">
        <ele>1385</ele>
        <time>2015-02-27T15:41:32Z</time>
      </trkpt>
      <trkpt lat="45.66322" lon="5.98349">
        <ele>1387</ele>
        <time>2015-02-27T15:42:39Z</time>
      </trkpt>
      <trkpt lat="45.66307" lon="5.98332">
        <ele>1389</ele>
        <time>2015-02-27T15:44:21Z</time>
      </trkpt>
      <trkpt lat="45.6629" lon="5.98324">
        <ele>1390</ele>
        <time>2015-02-27T15:44:43Z</time>
      </trkpt>
      <trkpt lat="45.66282" lon="5.98349">
        <ele>1389</ele>
        <time>2015-02-27T15:45:01Z</time>
      </trkpt>
      <trkpt lat="45.66286" lon="5.98375">
        <ele>1388</ele>
        <time>2015-02-27T15:45:14Z</time>
      </trkpt>
      <trkpt lat="45.66279" lon="5.98399">
        <ele>1388</ele>
        <time>2015-02-27T15:45:37Z</time>
      </trkpt>
      <trkpt lat="45.6626" lon="5.98406">
        <ele>1389</ele>
        <time>2015-02-27T15:45:57Z</time>
      </trkpt>
      <trkpt lat="45.66242" lon="5.98406">
        <ele>1390</ele>
        <time>2015-02-27T15:46:16Z</time>
      </trkpt>
      <trkpt lat="45.66226" lon="5.98422">
        <ele>1389</ele>
        <time>2015-02-27T15:46:28Z</time>
      </trkpt>
      <trkpt lat="45.66217" lon="5.98446">
        <ele>1389</ele>
        <time>2015-02-27T15:46:40Z</time>
      </trkpt>
      <trkpt lat="45.66206" lon="5.98467">
        <ele>1389</ele>
        <time>2015-02-27T15:46:51Z</time>
      </trkpt>
      <trkpt lat="45.66191" lon="5.98483">
        <ele>1389</ele>
        <time>2015-02-27T15:47:13Z</time>
      </trkpt>
      <trkpt lat="45.66172" lon="5.9848">
        <ele>1389</ele>
        <time>2015-02-27T15:47:33Z</time>
      </trkpt>
      <trkpt lat="45.66154" lon="5.98484">
        <ele>1390</ele>
        <time>2015-02-27T15:47:48Z</time>
      </trkpt>
      <trkpt lat="45.66135" lon="5.98476">
        <ele>1389</ele>
        <time>2015-02-27T15:48:04Z</time>
      </trkpt>
      <trkpt lat="45.66119" lon="5.98462">
        <ele>1389</ele>
        <time>2015-02-27T15:48:19Z</time>
      </trkpt>
      <trkpt lat="45.66101" lon="5.98456">
        <ele>1389</ele>
        <time>2015-02-27T15:48:33Z</time>
      </trkpt>
      <trkpt lat="45.66086" lon="5.98444">
        <ele>1389</ele>
        <time>2015-02-27T15:48:51Z</time>
      </trkpt>
      <trkpt lat="45.66071" lon="5.98428">
        <ele>1389</ele>
        <time>2015-02-27T15:49:08Z</time>
      </trkpt>
      <trkpt lat="45.66057" lon="5.98411">
        <ele>1391</ele>
        <time>2015-02-27T15:49:23Z</time>
      </trkpt>
      <trkpt lat="45.66046" lon="5.98389">
        <ele>1392</ele>
        <time>2015-02-27T15:49:41Z</time>
      </trkpt>
      <trkpt lat="45.66033" lon="5.9837">
        <ele>1392</ele>
        <time>2015-02-27T15:50:01Z</time>
      </trkpt>
      <trkpt lat="45.66022" lon="5.98349">
        <ele>1393</ele>
        <time>2015-02-27T15:50:25Z</time>
      </trkpt>
      <trkpt lat="45.66006" lon="5.98334">
        <ele>1394</ele>
        <time>2015-02-27T15:50:36Z</time>
      </trkpt>
      <trkpt lat="45.65992" lon="5.98317">
        <ele>1394</ele>
        <time>2015-02-27T15:50:54Z</time>
      </trkpt>
      <trkpt lat="45.65978" lon="5.98301">
        <ele>1394</ele>
        <time>2015-02-27T15:51:14Z</time>
      </trkpt>
      <trkpt lat="45.65967" lon="5.98279">
        <ele>1394</ele>
        <time>2015-02-27T15:51:29Z</time>
      </trkpt>
      <trkpt lat="45.65952" lon="5.98263">
        <ele>1393</ele>
        <time>2015-02-27T15:51:40Z</time>
      </trkpt>
      <trkpt lat="45.65937" lon="5.98247">
        <ele>1393</ele>
        <time>2015-02-27T15:51:52Z</time>
      </trkpt>
      <trkpt lat="45.65919" lon="5.98241">
        <ele>1392</ele>
        <time>2015-02-27T15:52:08Z</time>
      </trkpt>
      <trkpt lat="45.65905" lon="5.98222">
        <ele>1390</ele>
        <time>2015-02-27T15:52:27Z</time>
      </trkpt>
      <trkpt lat="45.65892" lon="5.98204">
        <ele>1390</ele>
        <time>2015-02-27T15:52:46Z</time>
      </trkpt>
      <trkpt lat="45.65875" lon="5.98194">
        <ele>1389</ele>
        <time>2015-02-27T15:53:02Z</time>
      </trkpt>
      <trkpt lat="45.65856" lon="5.98192">
        <ele>1389</ele>
        <time>2015-02-27T15:53:11Z</time>
      </trkpt>
      <trkpt lat="45.65839" lon="5.98181">
        <ele>1389</ele>
        <time>2015-02-27T15:54:10Z</time>
      </trkpt>
      <trkpt lat="45.65821" lon="5.9817">
        <ele>1387</ele>
        <time>2015-02-27T15:54:20Z</time>
      </trkpt>
      <trkpt lat="45.65802" lon="5.98163">
        <ele>1388</ele>
        <time>2015-02-27T15:54:30Z</time>
      </trkpt>
      <trkpt lat="45.65784" lon="5.98168">
        <ele>1386</ele>
        <time>2015-02-27T15:54:42Z</time>
      </trkpt>
      <trkpt lat="45.65765" lon="5.98173">
        <ele>1385</ele>
        <time>2015-02-27T15:54:55Z</time>
      </trkpt>
      <trkpt lat="45.65747" lon="5.9817">
        <ele>1384</ele>
        <time>2015-02-27T15:55:11Z</time>
      </trkpt>
      <trkpt lat="45.65731" lon="5.98179">
        <ele>1384</ele>
        <time>2015-02-27T15:55:40Z</time>
      </trkpt>
      <trkpt lat="45.65713" lon="5.98172">
        <ele>1385</ele>
        <time>2015-02-27T15:56:00Z</time>
      </trkpt>
      <trkpt lat="45.65695" lon="5.98168">
        <ele>1385</ele>
        <time>2015-02-27T15:56:12Z</time>
      </trkpt>
      <trkpt lat="45.65677" lon="5.98157">
        <ele>1387</ele>
        <time>2015-02-27T15:56:25Z</time>
      </trkpt>
      <trkpt lat="45.65658" lon="5.98153">
        <ele>1388</ele>
        <time>2015-02-27T15:56:43Z</time>
      </trkpt>
      <trkpt lat="45.65639" lon="5.98152">
        <ele>1389</ele>
        <time>2015-02-27T15:57:02Z</time>
      </trkpt>
      <trkpt lat="45.6562" lon="5.98152">
        <ele>1389</ele>
        <time>2015-02-27T15:57:18Z</time>
      </trkpt>
      <trkpt lat="45.65602" lon="5.98149">
        <ele>1389</ele>
        <time>2015-02-27T15:57:25Z</time>
      </trkpt>
      <trkpt lat="45.65583" lon="5.98149">
        <ele>1388</ele>
        <time>2015-02-27T15:57:36Z</time>
      </trkpt>
      <trkpt lat="45.65577" lon="5.98175">
        <ele>1385</ele>
        <time>2015-02-27T15:57:52Z</time>
      </trkpt>
      <trkpt lat="45.65582" lon="5.98202">
        <ele>1384</ele>
        <time>2015-02-27T15:58:04Z</time>
      </trkpt>
      <trkpt lat="45.65583" lon="5.98232">
        <ele>1383</ele>
        <time>2015-02-27T15:58:10Z</time>
      </trkpt>
      <trkpt lat="45.65583" lon="5.98261">
        <ele>1381</ele>
        <time>2015-02-27T15:58:15Z</time>
      </trkpt>
      <trkpt lat="45.6558" lon="5.98287">
        <ele>1381</ele>
        <time>2015-02-27T15:58:21Z</time>
      </trkpt>
      <trkpt lat="45.65573" lon="5.98315">
        <ele>1380</ele>
        <time>2015-02-27T15:58:26Z</time>
      </trkpt>
      <trkpt lat="45.65565" lon="5.98343">
        <ele>1380</ele>
        <time>2015-02-27T15:58:29Z</time>
      </trkpt>
      <trkpt lat="45.65556" lon="5.98365">
        <ele>1380</ele>
        <time>2015-02-27T15:58:44Z</time>
      </trkpt>
      <trkpt lat="45.65562" lon="5.98389">
        <ele>1381</ele>
        <time>2015-02-27T15:59:58Z</time>
      </trkpt>
      <trkpt lat="45.65552" lon="5.98413">
        <ele>1381</ele>
        <time>2015-02-27T16:00:17Z</time>
      </trkpt>
      <trkpt lat="45.6554" lon="5.98432">
        <ele>1382</ele>
        <time>2015-02-27T16:00:38Z</time>
      </trkpt>
      <trkpt lat="45.65531" lon="5.98456">
        <ele>1382</ele>
        <time>2015-02-27T16:01:18Z</time>
      </trkpt>
      <trkpt lat="45.65522" lon="5.98478">
        <ele>1382</ele>
        <time>2015-02-27T16:01:28Z</time>
      </trkpt>
      <trkpt lat="45.65512" lon="5.98501">
        <ele>1382</ele>
        <time>2015-02-27T16:01:42Z</time>
      </trkpt>
      <trkpt lat="45.65502" lon="5.98524">
        <ele>1382</ele>
        <time>2015-02-27T16:01:57Z</time>
      </trkpt>
      <trkpt lat="45.65496" lon="5.98553">
        <ele>1380</ele>
        <time>2015-02-27T16:02:05Z</time>
      </trkpt>
      <trkpt lat="45.65491" lon="5.98579">
        <ele>1381</ele>
        <time>2015-02-27T16:02:09Z</time>
      </trkpt>
      <trkpt lat="45.6548" lon="5.98608">
        <ele>1378</ele>
        <time>2015-02-27T16:02:12Z</time>
      </trkpt>
      <trkpt lat="45.65474" lon="5.98639">
        <ele>1377</ele>
        <time>2015-02-27T16:02:17Z</time>
      </trkpt>
      <trkpt lat="45.65468" lon="5.98663">
        <ele>1376</ele>
        <time>2015-02-27T16:02:20Z</time>
      </trkpt>
      <trkpt lat="45.65463" lon="5.98693">
        <ele>1372</ele>
        <time>2015-02-27T16:02:23Z</time>
      </trkpt>
      <trkpt lat="45.65459" lon="5.98722">
        <ele>1371</ele>
        <time>2015-02-27T16:02:26Z</time>
      </trkpt>
      <trkpt lat="45.65462" lon="5.98748">
        <ele>1371</ele>
        <time>2015-02-27T16:02:29Z</time>
      </trkpt>
      <trkpt lat="45.65466" lon="5.98779">
        <ele>1367</ele>
        <time>2015-02-27T16:02:32Z</time>
      </trkpt>
      <trkpt lat="45.65463" lon="5.98815">
        <ele>1366</ele>
        <time>2015-02-27T16:02:36Z</time>
      </trkpt>
      <trkpt lat="45.65453" lon="5.98843">
        <ele>1361</ele>
        <time>2015-02-27T16:02:39Z</time>
      </trkpt>
      <trkpt lat="45.65449" lon="5.98874">
        <ele>1360</ele>
        <time>2015-02-27T16:02:43Z</time>
      </trkpt>
      <trkpt lat="45.65447" lon="5.98903">
        <ele>1359</ele>
        <time>2015-02-27T16:02:51Z</time>
      </trkpt>
      <trkpt lat="45.65435" lon="5.98926">
        <ele>1356</ele>
        <time>2015-02-27T16:03:01Z</time>
      </trkpt>
      <trkpt lat="45.65418" lon="5.98913">
        <ele>1355</ele>
        <time>2015-02-27T16:03:09Z</time>
      </trkpt>
      <trkpt lat="45.65409" lon="5.98889">
        <ele>1353</ele>
        <time>2015-02-27T16:03:20Z</time>
      </trkpt>
      <trkpt lat="45.65397" lon="5.98867">
        <ele>1353</ele>
        <time>2015-02-27T16:03:30Z</time>
      </trkpt>
      <trkpt lat="45.65384" lon="5.98848">
        <ele>1353</ele>
        <time>2015-02-27T16:03:37Z</time>
      </trkpt>
      <trkpt lat="45.65371" lon="5.98826">
        <ele>1354</ele>
        <time>2015-02-27T16:03:43Z</time>
      </trkpt>
      <trkpt lat="45.6536" lon="5.98805">
        <ele>1354</ele>
        <time>2015-02-27T16:03:50Z</time>
      </trkpt>
      <trkpt lat="45.65345" lon="5.98789">
        <ele>1354</ele>
        <time>2015-02-27T16:03:58Z</time>
      </trkpt>
      <trkpt lat="45.6533" lon="5.98768">
        <ele>1348</ele>
        <time>2015-02-27T16:04:04Z</time>
      </trkpt>
      <trkpt lat="45.65313" lon="5.98759">
        <ele>1347</ele>
        <time>2015-02-27T16:04:09Z</time>
      </trkpt>
      <trkpt lat="45.65293" lon="5.98755">
        <ele>1345</ele>
        <time>2015-02-27T16:04:15Z</time>
      </trkpt>
      <trkpt lat="45.65275" lon="5.98748">
        <ele>1345</ele>
        <time>2015-02-27T16:04:23Z</time>
      </trkpt>
      <trkpt lat="45.65256" lon="5.98741">
        <ele>1343</ele>
        <time>2015-02-27T16:04:32Z</time>
      </trkpt>
      <trkpt lat="45.65237" lon="5.98731">
        <ele>1339</ele>
        <time>2015-02-27T16:04:38Z</time>
      </trkpt>
      <trkpt lat="45.65224" lon="5.98713">
        <ele>1339</ele>
        <time>2015-02-27T16:04:47Z</time>
      </trkpt>
      <trkpt lat="45.65209" lon="5.98697">
        <ele>1339</ele>
        <time>2015-02-27T16:04:51Z</time>
      </trkpt>
      <trkpt lat="45.65193" lon="5.98681">
        <ele>1338</ele>
        <time>2015-02-27T16:04:55Z</time>
      </trkpt>
      <trkpt lat="45.65175" lon="5.9867">
        <ele>1336</ele>
        <time>2015-02-27T16:05:00Z</time>
      </trkpt>
      <trkpt lat="45.65157" lon="5.98666">
        <ele>1336</ele>
        <time>2015-02-27T16:05:07Z</time>
      </trkpt>
      <trkpt lat="45.65139" lon="5.98664">
        <ele>1336</ele>
        <time>2015-02-27T16:05:20Z</time>
      </trkpt>
      <trkpt lat="45.65119" lon="5.98657">
        <ele>1336</ele>
        <time>2015-02-27T16:05:35Z</time>
      </trkpt>
      <trkpt lat="45.65099" lon="5.9865">
        <ele>1335</ele>
        <time>2015-02-27T16:05:43Z</time>
      </trkpt>
      <trkpt lat="45.65082" lon="5.98641">
        <ele>1332</ele>
        <time>2015-02-27T16:05:50Z</time>
      </trkpt>
      <trkpt lat="45.65065" lon="5.98631">
        <ele>1333</ele>
        <time>2015-02-27T16:06:02Z</time>
      </trkpt>
      <trkpt lat="45.65045" lon="5.98625">
        <ele>1333</ele>
        <time>2015-02-27T16:06:12Z</time>
      </trkpt>
      <trkpt lat="45.65027" lon="5.98629">
        <ele>1332</ele>
        <time>2015-02-27T16:06:19Z</time>
      </trkpt>
      <trkpt lat="45.65009" lon="5.98635">
        <ele>1331</ele>
        <time>2015-02-27T16:06:27Z</time>
      </trkpt>
      <trkpt lat="45.64991" lon="5.98641">
        <ele>1327</ele>
        <time>2015-02-27T16:06:35Z</time>
      </trkpt>
      <trkpt lat="45.64969" lon="5.98643">
        <ele>1326</ele>
        <time>2015-02-27T16:06:42Z</time>
      </trkpt>
      <trkpt lat="45.6495" lon="5.98643">
        <ele>1325</ele>
        <time>2015-02-27T16:06:44Z</time>
      </trkpt>
      <trkpt lat="45.64928" lon="5.98638">
        <ele>1324</ele>
        <time>2015-02-27T16:06:47Z</time>
      </trkpt>
      <trkpt lat="45.64906" lon="5.98631">
        <ele>1321</ele>
        <time>2015-02-27T16:06:50Z</time>
      </trkpt>
      <trkpt lat="45.64886" lon="5.9863">
        <ele>1321</ele>
        <time>2015-02-27T16:06:53Z</time>
      </trkpt>
      <trkpt lat="45.64866" lon="5.98633">
        <ele>1321</ele>
        <time>2015-02-27T16:06:56Z</time>
      </trkpt>
      <trkpt lat="45.64848" lon="5.98637">
        <ele>1320</ele>
        <time>2015-02-27T16:07:01Z</time>
      </trkpt>
      <trkpt lat="45.64829" lon="5.98635">
        <ele>1320</ele>
        <time>2015-02-27T16:07:09Z</time>
      </trkpt>
      <trkpt lat="45.64812" lon="5.98625">
        <ele>1320</ele>
        <time>2015-02-27T16:07:24Z</time>
      </trkpt>
      <trkpt lat="45.648" lon="5.98604">
        <ele>1321</ele>
        <time>2015-02-27T16:07:48Z</time>
      </trkpt>
      <trkpt lat="45.64793" lon="5.9858">
        <ele>1325</ele>
        <time>2015-02-27T16:08:06Z</time>
      </trkpt>
      <trkpt lat="45.64784" lon="5.98557">
        <ele>1325</ele>
        <time>2015-02-27T16:08:24Z</time>
      </trkpt>
      <trkpt lat="45.6477" lon="5.98539">
        <ele>1326</ele>
        <time>2015-02-27T16:08:37Z</time>
      </trkpt>
      <trkpt lat="45.64758" lon="5.98518">
        <ele>1326</ele>
        <time>2015-02-27T16:08:50Z</time>
      </trkpt>
      <trkpt lat="45.64743" lon="5.98502">
        <ele>1324</ele>
        <time>2015-02-27T16:09:02Z</time>
      </trkpt>
      <trkpt lat="45.64724" lon="5.98494">
        <ele>1325</ele>
        <time>2015-02-27T16:09:08Z</time>
      </trkpt>
      <trkpt lat="45.64706" lon="5.98484">
        <ele>1324</ele>
        <time>2015-02-27T16:09:57Z</time>
      </trkpt>
      <trkpt lat="45.64691" lon="5.98469">
        <ele>1324</ele>
        <time>2015-02-27T16:10:14Z</time>
      </trkpt>
      <trkpt lat="45.64676" lon="5.98453">
        <ele>1325</ele>
        <time>2015-02-27T16:10:39Z</time>
      </trkpt>
      <trkpt lat="45.64662" lon="5.98437">
        <ele>1322</ele>
        <time>2015-02-27T16:11:02Z</time>
      </trkpt>
      <trkpt lat="45.64651" lon="5.98409">
        <ele>1324</ele>
        <time>2015-02-27T16:11:15Z</time>
      </trkpt>
      <trkpt lat="45.64643" lon="5.98379">
        <ele>1324</ele>
        <time>2015-02-27T16:11:19Z</time>
      </trkpt>
      <trkpt lat="45.64635" lon="5.98352">
        <ele>1324</ele>
        <time>2015-02-27T16:11:24Z</time>
      </trkpt>
      <trkpt lat="45.64627" lon="5.98328">
        <ele>1326</ele>
        <time>2015-02-27T16:11:33Z</time>
      </trkpt>
      <trkpt lat="45.6461" lon="5.98313">
        <ele>1325</ele>
        <time>2015-02-27T16:11:44Z</time>
      </trkpt>
      <trkpt lat="45.64592" lon="5.98312">
        <ele>1324</ele>
        <time>2015-02-27T16:11:51Z</time>
      </trkpt>
      <trkpt lat="45.64574" lon="5.98305">
        <ele>1322</ele>
        <time>2015-02-27T16:11:57Z</time>
      </trkpt>
      <trkpt lat="45.64556" lon="5.98302">
        <ele>1322</ele>
        <time>2015-02-27T16:12:05Z</time>
      </trkpt>
      <trkpt lat="45.64547" lon="5.98278">
        <ele>1323</ele>
        <time>2015-02-27T16:12:38Z</time>
      </trkpt>
      <trkpt lat="45.64542" lon="5.98253">
        <ele>1323</ele>
        <time>2015-02-27T16:12:55Z</time>
      </trkpt>
      <trkpt lat="45.64536" lon="5.98228">
        <ele>1327</ele>
        <time>2015-02-27T16:13:12Z</time>
      </trkpt>
      <trkpt lat="45.64535" lon="5.98202">
        <ele>1328</ele>
        <time>2015-02-27T16:13:29Z</time>
      </trkpt>
      <trkpt lat="45.64534" lon="5.98175">
        <ele>1328</ele>
        <time>2015-02-27T16:13:48Z</time>
      </trkpt>
      <trkpt lat="45.64535" lon="5.98201">
        <ele>1328</ele>
        <time>2015-02-27T16:27:58Z</time>
      </trkpt>
      <trkpt lat="45.64534" lon="5.98229">
        <ele>1327</ele>
        <time>2015-02-27T16:28:06Z</time>
      </trkpt>
      <trkpt lat="45.6453" lon="5.98257">
        <ele>1323</ele>
        <time>2015-02-27T16:28:14Z</time>
      </trkpt>
      <trkpt lat="45.64522" lon="5.98286">
        <ele>1322</ele>
        <time>2015-02-27T16:28:26Z</time>
      </trkpt>
      <trkpt lat="45.6452" lon="5.98312">
        <ele>1322</ele>
        <time>2015-02-27T16:28:31Z</time>
      </trkpt>
      <trkpt lat="45.64517" lon="5.98338">
        <ele>1320</ele>
        <time>2015-02-27T16:28:41Z</time>
      </trkpt>
      <trkpt lat="45.64525" lon="5.98363">
        <ele>1320</ele>
        <time>2015-02-27T16:29:02Z</time>
      </trkpt>
      <trkpt lat="45.64537" lon="5.98383">
        <ele>1320</ele>
        <time>2015-02-27T16:29:22Z</time>
      </trkpt>
      <trkpt lat="45.64547" lon="5.98404">
        <ele>1320</ele>
        <time>2015-02-27T16:29:41Z</time>
      </trkpt>
      <trkpt lat="45.64552" lon="5.98437">
        <ele>1317</ele>
        <time>2015-02-27T16:29:53Z</time>
      </trkpt>
      <trkpt lat="45.64554" lon="5.98464">
        <ele>1316</ele>
        <time>2015-02-27T16:30:00Z</time>
      </trkpt>
      <trkpt lat="45.64551" lon="5.9849">
        <ele>1315</ele>
        <time>2015-02-27T16:30:44Z</time>
      </trkpt>
      <trkpt lat="45.64549" lon="5.98522">
        <ele>1312</ele>
        <time>2015-02-27T16:30:47Z</time>
      </trkpt>
      <trkpt lat="45.64544" lon="5.98548">
        <ele>1311</ele>
        <time>2015-02-27T16:30:51Z</time>
      </trkpt>
      <trkpt lat="45.64527" lon="5.98557">
        <ele>1311</ele>
        <time>2015-02-27T16:31:02Z</time>
      </trkpt>
      <trkpt lat="45.64509" lon="5.98559">
        <ele>1310</ele>
        <time>2015-02-27T16:31:16Z</time>
      </trkpt>
      <trkpt lat="45.64493" lon="5.98572">
        <ele>1309</ele>
        <time>2015-02-27T16:31:29Z</time>
      </trkpt>
      <trkpt lat="45.64476" lon="5.98581">
        <ele>1310</ele>
        <time>2015-02-27T16:31:37Z</time>
      </trkpt>
      <trkpt lat="45.64457" lon="5.98589">
        <ele>1309</ele>
        <time>2015-02-27T16:31:44Z</time>
      </trkpt>
      <trkpt lat="45.64439" lon="5.98604">
        <ele>1309</ele>
        <time>2015-02-27T16:31:51Z</time>
      </trkpt>
      <trkpt lat="45.64422" lon="5.98618">
        <ele>1309</ele>
        <time>2015-02-27T16:31:57Z</time>
      </trkpt>
      <trkpt lat="45.64404" lon="5.98631">
        <ele>1308</ele>
        <time>2015-02-27T16:32:03Z</time>
      </trkpt>
      <trkpt lat="45.64386" lon="5.98642">
        <ele>1308</ele>
        <time>2015-02-27T16:32:09Z</time>
      </trkpt>
      <trkpt lat="45.64367" lon="5.98649">
        <ele>1307</ele>
        <time>2015-02-27T16:32:17Z</time>
      </trkpt>
      <trkpt lat="45.64349" lon="5.98658">
        <ele>1306</ele>
        <time>2015-02-27T16:32:28Z</time>
      </trkpt>
      <trkpt lat="45.64333" lon="5.98669">
        <ele>1304</ele>
        <time>2015-02-27T16:32:37Z</time>
      </trkpt>
      <trkpt lat="45.64315" lon="5.98674">
        <ele>1303</ele>
        <time>2015-02-27T16:32:46Z</time>
      </trkpt>
      <trkpt lat="45.64297" lon="5.98665">
        <ele>1304</ele>
        <time>2015-02-27T16:33:18Z</time>
      </trkpt>
      <trkpt lat="45.64286" lon="5.98644">
        <ele>1304</ele>
        <time>2015-02-27T16:33:40Z</time>
      </trkpt>
      <trkpt lat="45.64273" lon="5.98622">
        <ele>1304</ele>
        <time>2015-02-27T16:34:29Z</time>
      </trkpt>
      <trkpt lat="45.6426" lon="5.98602">
        <ele>1303</ele>
        <time>2015-02-27T16:34:35Z</time>
      </trkpt>
      <trkpt lat="45.64248" lon="5.98583">
        <ele>1302</ele>
        <time>2015-02-27T16:34:43Z</time>
      </trkpt>
      <trkpt lat="45.64235" lon="5.9856">
        <ele>1301</ele>
        <time>2015-02-27T16:34:51Z</time>
      </trkpt>
      <trkpt lat="45.64222" lon="5.98538">
        <ele>1301</ele>
        <time>2015-02-27T16:34:56Z</time>
      </trkpt>
      <trkpt lat="45.64208" lon="5.98521">
        <ele>1301</ele>
        <time>2015-02-27T16:35:00Z</time>
      </trkpt>
      <trkpt lat="45.6419" lon="5.98522">
        <ele>1300</ele>
        <time>2015-02-27T16:35:06Z</time>
      </trkpt>
      <trkpt lat="45.64174" lon="5.98534">
        <ele>1300</ele>
        <time>2015-02-27T16:35:12Z</time>
      </trkpt>
      <trkpt lat="45.64158" lon="5.98551">
        <ele>1297</ele>
        <time>2015-02-27T16:35:19Z</time>
      </trkpt>
      <trkpt lat="45.64142" lon="5.98563">
        <ele>1297</ele>
        <time>2015-02-27T16:35:39Z</time>
      </trkpt>
      <trkpt lat="45.64128" lon="5.98581">
        <ele>1297</ele>
        <time>2015-02-27T16:36:42Z</time>
      </trkpt>
      <trkpt lat="45.64114" lon="5.98603">
        <ele>1296</ele>
        <time>2015-02-27T16:36:49Z</time>
      </trkpt>
      <trkpt lat="45.64102" lon="5.98626">
        <ele>1295</ele>
        <time>2015-02-27T16:36:56Z</time>
      </trkpt>
      <trkpt lat="45.64087" lon="5.9864">
        <ele>1295</ele>
        <time>2015-02-27T16:37:07Z</time>
      </trkpt>
      <trkpt lat="45.64072" lon="5.98657">
        <ele>1293</ele>
        <time>2015-02-27T16:37:18Z</time>
      </trkpt>
      <trkpt lat="45.64055" lon="5.98672">
        <ele>1292</ele>
        <time>2015-02-27T16:37:29Z</time>
      </trkpt>
      <trkpt lat="45.6404" lon="5.98688">
        <ele>1292</ele>
        <time>2015-02-27T16:37:40Z</time>
      </trkpt>
      <trkpt lat="45.64026" lon="5.98707">
        <ele>1292</ele>
        <time>2015-02-27T16:37:52Z</time>
      </trkpt>
      <trkpt lat="45.64009" lon="5.98723">
        <ele>1292</ele>
        <time>2015-02-27T16:38:03Z</time>
      </trkpt>
      <trkpt lat="45.63994" lon="5.98741">
        <ele>1293</ele>
        <time>2015-02-27T16:38:11Z</time>
      </trkpt>
      <trkpt lat="45.63978" lon="5.98757">
        <ele>1293</ele>
        <time>2015-02-27T16:38:20Z</time>
      </trkpt>
      <trkpt lat="45.6396" lon="5.9877">
        <ele>1293</ele>
        <time>2015-02-27T16:38:33Z</time>
      </trkpt>
      <trkpt lat="45.63942" lon="5.98766">
        <ele>1294</ele>
        <time>2015-02-27T16:38:46Z</time>
      </trkpt>
      <trkpt lat="45.63925" lon="5.98757">
        <ele>1294</ele>
        <time>2015-02-27T16:39:02Z</time>
      </trkpt>
      <trkpt lat="45.63907" lon="5.98752">
        <ele>1294</ele>
        <time>2015-02-27T16:39:10Z</time>
      </trkpt>
      <trkpt lat="45.63889" lon="5.98744">
        <ele>1293</ele>
        <time>2015-02-27T16:39:16Z</time>
      </trkpt>
      <trkpt lat="45.63869" lon="5.98737">
        <ele>1292</ele>
        <time>2015-02-27T16:39:23Z</time>
      </trkpt>
      <trkpt lat="45.63851" lon="5.98735">
        <ele>1292</ele>
        <time>2015-02-27T16:39:30Z</time>
      </trkpt>
      <trkpt lat="45.63832" lon="5.98736">
        <ele>1292</ele>
        <time>2015-02-27T16:39:40Z</time>
      </trkpt>
      <trkpt lat="45.63813" lon="5.98735">
        <ele>1291</ele>
        <time>2015-02-27T16:39:50Z</time>
      </trkpt>
      <trkpt lat="45.63794" lon="5.98738">
        <ele>1291</ele>
        <time>2015-02-27T16:39:59Z</time>
      </trkpt>
      <trkpt lat="45.63777" lon="5.98746">
        <ele>1291</ele>
        <time>2015-02-27T16:40:04Z</time>
      </trkpt>
      <trkpt lat="45.63761" lon="5.98761">
        <ele>1290</ele>
        <time>2015-02-27T16:40:09Z</time>
      </trkpt>
      <trkpt lat="45.63744" lon="5.98773">
        <ele>1289</ele>
        <time>2015-02-27T16:40:15Z</time>
      </trkpt>
      <trkpt lat="45.63727" lon="5.98787">
        <ele>1289</ele>
        <time>2015-02-27T16:40:22Z</time>
      </trkpt>
      <trkpt lat="45.63711" lon="5.98799">
        <ele>1289</ele>
        <time>2015-02-27T16:40:29Z</time>
      </trkpt>
      <trkpt lat="45.63695" lon="5.98812">
        <ele>1289</ele>
        <time>2015-02-27T16:40:40Z</time>
      </trkpt>
      <trkpt lat="45.63679" lon="5.98826">
        <ele>1288</ele>
        <time>2015-02-27T16:40:50Z</time>
      </trkpt>
      <trkpt lat="45.63662" lon="5.98837">
        <ele>1288</ele>
        <time>2015-02-27T16:40:59Z</time>
      </trkpt>
      <trkpt lat="45.63643" lon="5.98843">
        <ele>1288</ele>
        <time>2015-02-27T16:41:09Z</time>
      </trkpt>
      <trkpt lat="45.63625" lon="5.9885">
        <ele>1288</ele>
        <time>2015-02-27T16:41:18Z</time>
      </trkpt>
      <trkpt lat="45.63609" lon="5.98866">
        <ele>1288</ele>
        <time>2015-02-27T16:41:25Z</time>
      </trkpt>
      <trkpt lat="45.63601" lon="5.98891">
        <ele>1288</ele>
        <time>2015-02-27T16:41:38Z</time>
      </trkpt>
      <trkpt lat="45.63608" lon="5.98918">
        <ele>1288</ele>
        <time>2015-02-27T16:41:50Z</time>
      </trkpt>
      <trkpt lat="45.63618" lon="5.9894">
        <ele>1288</ele>
        <time>2015-02-27T16:41:58Z</time>
      </trkpt>
      <trkpt lat="45.63635" lon="5.9895">
        <ele>1288</ele>
        <time>2015-02-27T16:42:08Z</time>
      </trkpt>
      <trkpt lat="45.63653" lon="5.98954">
        <ele>1288</ele>
        <time>2015-02-27T16:42:21Z</time>
      </trkpt>
      <trkpt lat="45.63671" lon="5.98959">
        <ele>1288</ele>
        <time>2015-02-27T16:42:32Z</time>
      </trkpt>
      <trkpt lat="45.63687" lon="5.98972">
        <ele>1288</ele>
        <time>2015-02-27T16:42:44Z</time>
      </trkpt>
      <trkpt lat="45.63704" lon="5.98988">
        <ele>1288</ele>
        <time>2015-02-27T16:42:53Z</time>
      </trkpt>
      <trkpt lat="45.63717" lon="5.99007">
        <ele>1287</ele>
        <time>2015-02-27T16:43:03Z</time>
      </trkpt>
      <trkpt lat="45.63729" lon="5.9903">
        <ele>1287</ele>
        <time>2015-02-27T16:43:13Z</time>
      </trkpt>
      <trkpt lat="45.63736" lon="5.99053">
        <ele>1287</ele>
        <time>2015-02-27T16:43:25Z</time>
      </trkpt>
      <trkpt lat="45.63728" lon="5.99077">
        <ele>1287</ele>
        <time>2015-02-27T16:43:39Z</time>
      </trkpt>
      <trkpt lat="45.63714" lon="5.99095">
        <ele>1286</ele>
        <time>2015-02-27T16:43:46Z</time>
      </trkpt>
      <trkpt lat="45.63693" lon="5.99121">
        <ele>1286</ele>
        <time>2015-02-27T16:43:51Z</time>
      </trkpt>
      <trkpt lat="45.63678" lon="5.99139">
        <ele>1285</ele>
        <time>2015-02-27T16:43:56Z</time>
      </trkpt>
      <trkpt lat="45.63661" lon="5.9915">
        <ele>1284</ele>
        <time>2015-02-27T16:44:06Z</time>
      </trkpt>
      <trkpt lat="45.63645" lon="5.99162">
        <ele>1284</ele>
        <time>2015-02-27T16:44:16Z</time>
      </trkpt>
      <trkpt lat="45.63627" lon="5.99163">
        <ele>1284</ele>
        <time>2015-02-27T16:44:30Z</time>
      </trkpt>
      <trkpt lat="45.63608" lon="5.99159">
        <ele>1283</ele>
        <time>2015-02-27T16:44:41Z</time>
      </trkpt>
      <trkpt lat="45.63589" lon="5.99151">
        <ele>1283</ele>
        <time>2015-02-27T16:44:50Z</time>
      </trkpt>
      <trkpt lat="45.63572" lon="5.9914">
        <ele>1282</ele>
        <time>2015-02-27T16:44:58Z</time>
      </trkpt>
      <trkpt lat="45.63553" lon="5.99134">
        <ele>1282</ele>
        <time>2015-02-27T16:45:07Z</time>
      </trkpt>
      <trkpt lat="45.63532" lon="5.99139">
        <ele>1281</ele>
        <time>2015-02-27T16:45:13Z</time>
      </trkpt>
      <trkpt lat="45.63516" lon="5.99154">
        <ele>1280</ele>
        <time>2015-02-27T16:45:18Z</time>
      </trkpt>
      <trkpt lat="45.63514" lon="5.99183">
        <ele>1276</ele>
        <time>2015-02-27T16:45:25Z</time>
      </trkpt>
      <trkpt lat="45.63526" lon="5.99205">
        <ele>1276</ele>
        <time>2015-02-27T16:45:33Z</time>
      </trkpt>
      <trkpt lat="45.63543" lon="5.99216">
        <ele>1276</ele>
        <time>2015-02-27T16:45:44Z</time>
      </trkpt>
      <trkpt lat="45.63559" lon="5.99228">
        <ele>1276</ele>
        <time>2015-02-27T16:45:57Z</time>
      </trkpt>
      <trkpt lat="45.63577" lon="5.99239">
        <ele>1277</ele>
        <time>2015-02-27T16:46:08Z</time>
      </trkpt>
      <trkpt lat="45.63594" lon="5.99251">
        <ele>1278</ele>
        <time>2015-02-27T16:46:18Z</time>
      </trkpt>
      <trkpt lat="45.6361" lon="5.99269">
        <ele>1278</ele>
        <time>2015-02-27T16:46:27Z</time>
      </trkpt>
      <trkpt lat="45.63627" lon="5.99283">
        <ele>1277</ele>
        <time>2015-02-27T16:46:35Z</time>
      </trkpt>
      <trkpt lat="45.63643" lon="5.99296">
        <ele>1277</ele>
        <time>2015-02-27T16:46:41Z</time>
      </trkpt>
      <trkpt lat="45.63656" lon="5.99315">
        <ele>1277</ele>
        <time>2015-02-27T16:46:49Z</time>
      </trkpt>
      <trkpt lat="45.63671" lon="5.99334">
        <ele>1276</ele>
        <time>2015-02-27T16:46:58Z</time>
      </trkpt>
      <trkpt lat="45.63685" lon="5.99357">
        <ele>1274</ele>
        <time>2015-02-27T16:47:04Z</time>
      </trkpt>
      <trkpt lat="45.63694" lon="5.99382">
        <ele>1273</ele>
        <time>2015-02-27T16:47:11Z</time>
      </trkpt>
      <trkpt lat="45.63695" lon="5.99411">
        <ele>1272</ele>
        <time>2015-02-27T16:47:17Z</time>
      </trkpt>
      <trkpt lat="45.63695" lon="5.9944">
        <ele>1268</ele>
        <time>2015-02-27T16:47:20Z</time>
      </trkpt>
      <trkpt lat="45.63697" lon="5.99467">
        <ele>1267</ele>
        <time>2015-02-27T16:47:52Z</time>
      </trkpt>
      <trkpt lat="45.6371" lon="5.99486">
        <ele>1267</ele>
        <time>2015-02-27T16:48:05Z</time>
      </trkpt>
      <trkpt lat="45.63728" lon="5.99478">
        <ele>1267</ele>
        <time>2015-02-27T16:48:18Z</time>
      </trkpt>
      <trkpt lat="45.63744" lon="5.99462">
        <ele>1268</ele>
        <time>2015-02-27T16:48:33Z</time>
      </trkpt>
      <trkpt lat="45.63755" lon="5.99441">
        <ele>1270</ele>
        <time>2015-02-27T16:48:43Z</time>
      </trkpt>
      <trkpt lat="45.63765" lon="5.99419">
        <ele>1271</ele>
        <time>2015-02-27T16:49:06Z</time>
      </trkpt>
      <trkpt lat="45.63777" lon="5.99399">
        <ele>1274</ele>
        <time>2015-02-27T16:49:33Z</time>
      </trkpt>
      <trkpt lat="45.63791" lon="5.99383">
        <ele>1275</ele>
        <time>2015-02-27T16:49:52Z</time>
      </trkpt>
      <trkpt lat="45.63806" lon="5.99365">
        <ele>1276</ele>
        <time>2015-02-27T16:50:13Z</time>
      </trkpt>
      <trkpt lat="45.63819" lon="5.99345">
        <ele>1276</ele>
        <time>2015-02-27T16:50:19Z</time>
      </trkpt>
      <trkpt lat="45.63835" lon="5.99334">
        <ele>1277</ele>
        <time>2015-02-27T16:50:27Z</time>
      </trkpt>
      <trkpt lat="45.63851" lon="5.99346">
        <ele>1278</ele>
        <time>2015-02-27T16:50:41Z</time>
      </trkpt>
      <trkpt lat="45.63863" lon="5.99366">
        <ele>1278</ele>
        <time>2015-02-27T16:51:08Z</time>
      </trkpt>
      <trkpt lat="45.63873" lon="5.9939">
        <ele>1278</ele>
        <time>2015-02-27T16:51:25Z</time>
      </trkpt>
      <trkpt lat="45.63884" lon="5.99411">
        <ele>1278</ele>
        <time>2015-02-27T16:51:35Z</time>
      </trkpt>
      <trkpt lat="45.639" lon="5.99425">
        <ele>1277</ele>
        <time>2015-02-27T16:51:43Z</time>
      </trkpt>
      <trkpt lat="45.63916" lon="5.99435">
        <ele>1278</ele>
        <time>2015-02-27T16:51:55Z</time>
      </trkpt>
      <trkpt lat="45.63934" lon="5.99443">
        <ele>1281</ele>
        <time>2015-02-27T16:52:11Z</time>
      </trkpt>
      <trkpt lat="45.63952" lon="5.99446">
        <ele>1282</ele>
        <time>2015-02-27T16:52:27Z</time>
      </trkpt>
      <trkpt lat="45.63969" lon="5.99456">
        <ele>1282</ele>
        <time>2015-02-27T16:52:49Z</time>
      </trkpt>
      <trkpt lat="45.63975" lon="5.99481">
        <ele>1282</ele>
        <time>2015-02-27T16:53:15Z</time>
      </trkpt>
      <trkpt lat="45.63973" lon="5.9951">
        <ele>1279</ele>
        <time>2015-02-27T16:53:35Z</time>
      </trkpt>
      <trkpt lat="45.63978" lon="5.99535">
        <ele>1279</ele>
        <time>2015-02-27T16:53:41Z</time>
      </trkpt>
      <trkpt lat="45.63985" lon="5.9956">
        <ele>1278</ele>
        <time>2015-02-27T16:53:50Z</time>
      </trkpt>
      <trkpt lat="45.63991" lon="5.99585">
        <ele>1277</ele>
        <time>2015-02-27T16:54:10Z</time>
      </trkpt>
      <trkpt lat="45.64001" lon="5.99608">
        <ele>1278</ele>
        <time>2015-02-27T16:54:20Z</time>
      </trkpt>
      <trkpt lat="45.6401" lon="5.99632">
        <ele>1277</ele>
        <time>2015-02-27T16:54:29Z</time>
      </trkpt>
      <trkpt lat="45.64021" lon="5.99655">
        <ele>1277</ele>
        <time>2015-02-27T16:54:37Z</time>
      </trkpt>
      <trkpt lat="45.64025" lon="5.99681">
        <ele>1276</ele>
        <time>2015-02-27T16:54:52Z</time>
      </trkpt>
      <trkpt lat="45.64033" lon="5.99705">
        <ele>1276</ele>
        <time>2015-02-27T16:55:09Z</time>
      </trkpt>
      <trkpt lat="45.64039" lon="5.9973">
        <ele>1275</ele>
        <time>2015-02-27T16:55:25Z</time>
      </trkpt>
      <trkpt lat="45.64049" lon="5.99753">
        <ele>1273</ele>
        <time>2015-02-27T16:55:40Z</time>
      </trkpt>
      <trkpt lat="45.64049" lon="5.99781">
        <ele>1272</ele>
        <time>2015-02-27T16:55:57Z</time>
      </trkpt>
      <trkpt lat="45.64042" lon="5.99808">
        <ele>1271</ele>
        <time>2015-02-27T16:56:08Z</time>
      </trkpt>
      <trkpt lat="45.64033" lon="5.99831">
        <ele>1270</ele>
        <time>2015-02-27T16:56:17Z</time>
      </trkpt>
      <trkpt lat="45.64021" lon="5.99853">
        <ele>1267</ele>
        <time>2015-02-27T16:56:26Z</time>
      </trkpt>
      <trkpt lat="45.64004" lon="5.99867">
        <ele>1267</ele>
        <time>2015-02-27T16:56:36Z</time>
      </trkpt>
      <trkpt lat="45.63985" lon="5.99871">
        <ele>1264</ele>
        <time>2015-02-27T16:56:46Z</time>
      </trkpt>
      <trkpt lat="45.63967" lon="5.99867">
        <ele>1263</ele>
        <time>2015-02-27T16:56:56Z</time>
      </trkpt>
      <trkpt lat="45.63948" lon="5.99858">
        <ele>1263</ele>
        <time>2015-02-27T16:57:06Z</time>
      </trkpt>
      <trkpt lat="45.63928" lon="5.99849">
        <ele>1262</ele>
        <time>2015-02-27T16:57:14Z</time>
      </trkpt>
      <trkpt lat="45.63911" lon="5.99842">
        <ele>1259</ele>
        <time>2015-02-27T16:57:21Z</time>
      </trkpt>
      <trkpt lat="45.63891" lon="5.99833">
        <ele>1261</ele>
        <time>2015-02-27T16:57:27Z</time>
      </trkpt>
      <trkpt lat="45.63873" lon="5.99824">
        <ele>1261</ele>
        <time>2015-02-27T16:57:33Z</time>
      </trkpt>
      <trkpt lat="45.63854" lon="5.99817">
        <ele>1261</ele>
        <time>2015-02-27T16:57:39Z</time>
      </trkpt>
      <trkpt lat="45.63833" lon="5.99821">
        <ele>1258</ele>
        <time>2015-02-27T16:57:46Z</time>
      </trkpt>
      <trkpt lat="45.6382" lon="5.9984">
        <ele>1256</ele>
        <time>2015-02-27T16:57:51Z</time>
      </trkpt>
      <trkpt lat="45.63821" lon="5.99869">
        <ele>1255</ele>
        <time>2015-02-27T16:57:59Z</time>
      </trkpt>
      <trkpt lat="45.6383" lon="5.99892">
        <ele>1254</ele>
        <time>2015-02-27T16:58:07Z</time>
      </trkpt>
      <trkpt lat="45.63844" lon="5.99911">
        <ele>1256</ele>
        <time>2015-02-27T16:58:21Z</time>
      </trkpt>
      <trkpt lat="45.6386" lon="5.99921">
        <ele>1254</ele>
        <time>2015-02-27T16:58:33Z</time>
      </trkpt>
      <trkpt lat="45.63877" lon="5.99935">
        <ele>1254</ele>
        <time>2015-02-27T16:58:50Z</time>
      </trkpt>
      <trkpt lat="45.63894" lon="5.99944">
        <ele>1255</ele>
        <time>2015-02-27T16:59:04Z</time>
      </trkpt>
      <trkpt lat="45.63913" lon="5.99952">
        <ele>1255</ele>
        <time>2015-02-27T16:59:21Z</time>
      </trkpt>
      <trkpt lat="45.63926" lon="5.99969">
        <ele>1258</ele>
        <time>2015-02-27T16:59:40Z</time>
      </trkpt>
      <trkpt lat="45.63944" lon="5.99979">
        <ele>1258</ele>
        <time>2015-02-27T16:59:57Z</time>
      </trkpt>
      <trkpt lat="45.63962" lon="5.99985">
        <ele>1259</ele>
        <time>2015-02-27T17:00:12Z</time>
      </trkpt>
      <trkpt lat="45.63981" lon="5.99987">
        <ele>1260</ele>
        <time>2015-02-27T17:00:31Z</time>
      </trkpt>
      <trkpt lat="45.63996" lon="6.00002">
        <ele>1260</ele>
        <time>2015-02-27T17:00:47Z</time>
      </trkpt>
      <trkpt lat="45.64009" lon="6.0002">
        <ele>1259</ele>
        <time>2015-02-27T17:01:05Z</time>
      </trkpt>
      <trkpt lat="45.64025" lon="6.00036">
        <ele>1257</ele>
        <time>2015-02-27T17:01:15Z</time>
      </trkpt>
      <trkpt lat="45.6404" lon="6.00052">
        <ele>1257</ele>
        <time>2015-02-27T17:01:24Z</time>
      </trkpt>
      <trkpt lat="45.64053" lon="6.00071">
        <ele>1256</ele>
        <time>2015-02-27T17:01:33Z</time>
      </trkpt>
      <trkpt lat="45.64066" lon="6.00089">
        <ele>1254</ele>
        <time>2015-02-27T17:01:43Z</time>
      </trkpt>
      <trkpt lat="45.64079" lon="6.00109">
        <ele>1254</ele>
        <time>2015-02-27T17:01:56Z</time>
      </trkpt>
      <trkpt lat="45.64087" lon="6.00132">
        <ele>1254</ele>
        <time>2015-02-27T17:02:10Z</time>
      </trkpt>
      <trkpt lat="45.64096" lon="6.00156">
        <ele>1254</ele>
        <time>2015-02-27T17:02:29Z</time>
      </trkpt>
      <trkpt lat="45.64098" lon="6.00183">
        <ele>1253</ele>
        <time>2015-02-27T17:02:45Z</time>
      </trkpt>
      <trkpt lat="45.64107" lon="6.00207">
        <ele>1252</ele>
        <time>2015-02-27T17:02:57Z</time>
      </trkpt>
      <trkpt lat="45.64115" lon="6.0023">
        <ele>1251</ele>
        <time>2015-02-27T17:03:09Z</time>
      </trkpt>
      <trkpt lat="45.6413" lon="6.00247">
        <ele>1251</ele>
        <time>2015-02-27T17:03:23Z</time>
      </trkpt>
      <trkpt lat="45.64139" lon="6.00271">
        <ele>1249</ele>
        <time>2015-02-27T17:03:40Z</time>
      </trkpt>
      <trkpt lat="45.64153" lon="6.00289">
        <ele>1249</ele>
        <time>2015-02-27T17:03:58Z</time>
      </trkpt>
      <trkpt lat="45.64166" lon="6.0031">
        <ele>1249</ele>
        <time>2015-02-27T17:04:15Z</time>
      </trkpt>
      <trkpt lat="45.64173" lon="6.00334">
        <ele>1248</ele>
        <time>2015-02-27T17:04:33Z</time>
      </trkpt>
      <trkpt lat="45.64185" lon="6.00353">
        <ele>1246</ele>
        <time>2015-02-27T17:04:52Z</time>
      </trkpt>
      <trkpt lat="45.64196" lon="6.00375">
        <ele>1245</ele>
        <time>2015-02-27T17:05:10Z</time>
      </trkpt>
      <trkpt lat="45.64213" lon="6.00388">
        <ele>1245</ele>
        <time>2015-02-27T17:05:23Z</time>
      </trkpt>
      <trkpt lat="45.64223" lon="6.00411">
        <ele>1244</ele>
        <time>2015-02-27T17:05:40Z</time>
      </trkpt>
      <trkpt lat="45.64235" lon="6.00432">
        <ele>1241</ele>
        <time>2015-02-27T17:05:56Z</time>
      </trkpt>
      <trkpt lat="45.64242" lon="6.00456">
        <ele>1240</ele>
        <time>2015-02-27T17:06:15Z</time>
      </trkpt>
      <trkpt lat="45.64253" lon="6.00476">
        <ele>1242</ele>
        <time>2015-02-27T17:06:35Z</time>
      </trkpt>
      <trkpt lat="45.64263" lon="6.00498">
        <ele>1241</ele>
        <time>2015-02-27T17:06:55Z</time>
      </trkpt>
      <trkpt lat="45.64275" lon="6.00518">
        <ele>1241</ele>
        <time>2015-02-27T17:07:11Z</time>
      </trkpt>
      <trkpt lat="45.64288" lon="6.00539">
        <ele>1241</ele>
        <time>2015-02-27T17:07:24Z</time>
      </trkpt>
      <trkpt lat="45.64301" lon="6.00556">
        <ele>1241</ele>
        <time>2015-02-27T17:07:35Z</time>
      </trkpt>
      <trkpt lat="45.64309" lon="6.0058">
        <ele>1242</ele>
        <time>2015-02-27T17:07:55Z</time>
      </trkpt>
      <trkpt lat="45.64308" lon="6.00607">
        <ele>1240</ele>
        <time>2015-02-27T17:08:13Z</time>
      </trkpt>
      <trkpt lat="45.643" lon="6.00631">
        <ele>1239</ele>
        <time>2015-02-27T17:08:28Z</time>
      </trkpt>
      <trkpt lat="45.64293" lon="6.00657">
        <ele>1239</ele>
        <time>2015-02-27T17:08:41Z</time>
      </trkpt>
      <trkpt lat="45.6429" lon="6.00682">
        <ele>1236</ele>
        <time>2015-02-27T17:08:48Z</time>
      </trkpt>
      <trkpt lat="45.64291" lon="6.0071">
        <ele>1235</ele>
        <time>2015-02-27T17:08:59Z</time>
      </trkpt>
      <trkpt lat="45.64293" lon="6.00736">
        <ele>1235</ele>
        <time>2015-02-27T17:09:13Z</time>
      </trkpt>
      <trkpt lat="45.64304" lon="6.00758">
        <ele>1230</ele>
        <time>2015-02-27T17:09:21Z</time>
      </trkpt>
      <trkpt lat="45.64317" lon="6.00777">
        <ele>1229</ele>
        <time>2015-02-27T17:09:28Z</time>
      </trkpt>
      <trkpt lat="45.64331" lon="6.00794">
        <ele>1228</ele>
        <time>2015-02-27T17:09:39Z</time>
      </trkpt>
      <trkpt lat="45.64344" lon="6.00813">
        <ele>1227</ele>
        <time>2015-02-27T17:09:55Z</time>
      </trkpt>
      <trkpt lat="45.64361" lon="6.00826">
        <ele>1227</ele>
        <time>2015-02-27T17:10:12Z</time>
      </trkpt>
      <trkpt lat="45.64379" lon="6.0083">
        <ele>1228</ele>
        <time>2015-02-27T17:10:25Z</time>
      </trkpt>
      <trkpt lat="45.64398" lon="6.00833">
        <ele>1228</ele>
        <time>2015-02-27T17:10:44Z</time>
      </trkpt>
      <trkpt lat="45.64416" lon="6.00837">
        <ele>1226</ele>
        <time>2015-02-27T17:11:04Z</time>
      </trkpt>
      <trkpt lat="45.64434" lon="6.00834">
        <ele>1224</ele>
        <time>2015-02-27T17:11:26Z</time>
      </trkpt>
      <trkpt lat="45.6445" lon="6.00846">
        <ele>1223</ele>
        <time>2015-02-27T17:11:40Z</time>
      </trkpt>
      <trkpt lat="45.64455" lon="6.00871">
        <ele>1222</ele>
        <time>2015-02-27T17:11:52Z</time>
      </trkpt>
      <trkpt lat="45.64448" lon="6.00896">
        <ele>1221</ele>
        <time>2015-02-27T17:12:02Z</time>
      </trkpt>
      <trkpt lat="45.64433" lon="6.00913">
        <ele>1221</ele>
        <time>2015-02-27T17:12:17Z</time>
      </trkpt>
      <trkpt lat="45.64416" lon="6.00924">
        <ele>1219</ele>
        <time>2015-02-27T17:12:37Z</time>
      </trkpt>
      <trkpt lat="45.64398" lon="6.00932">
        <ele>1217</ele>
        <time>2015-02-27T17:12:56Z</time>
      </trkpt>
      <trkpt lat="45.64379" lon="6.00939">
        <ele>1216</ele>
        <time>2015-02-27T17:13:07Z</time>
      </trkpt>
      <trkpt lat="45.64361" lon="6.0094">
        <ele>1216</ele>
        <time>2015-02-27T17:13:16Z</time>
      </trkpt>
      <trkpt lat="45.64343" lon="6.00931">
        <ele>1216</ele>
        <time>2015-02-27T17:13:34Z</time>
      </trkpt>
      <trkpt lat="45.64325" lon="6.00924">
        <ele>1215</ele>
        <time>2015-02-27T17:13:48Z</time>
      </trkpt>
      <trkpt lat="45.64307" lon="6.00919">
        <ele>1213</ele>
        <time>2015-02-27T17:14:04Z</time>
      </trkpt>
      <trkpt lat="45.64289" lon="6.00929">
        <ele>1211</ele>
        <time>2015-02-27T17:14:16Z</time>
      </trkpt>
      <trkpt lat="45.64289" lon="6.00955">
        <ele>1210</ele>
        <time>2015-02-27T17:14:23Z</time>
      </trkpt>
      <trkpt lat="45.64294" lon="6.00981">
        <ele>1208</ele>
        <time>2015-02-27T17:14:29Z</time>
      </trkpt>
      <trkpt lat="45.64303" lon="6.01006">
        <ele>1202</ele>
        <time>2015-02-27T17:14:35Z</time>
      </trkpt>
      <trkpt lat="45.64314" lon="6.01029">
        <ele>1202</ele>
        <time>2015-02-27T17:14:41Z</time>
      </trkpt>
      <trkpt lat="45.64326" lon="6.01053">
        <ele>1200</ele>
        <time>2015-02-27T17:14:49Z</time>
      </trkpt>
      <trkpt lat="45.64337" lon="6.01073">
        <ele>1201</ele>
        <time>2015-02-27T17:14:57Z</time>
      </trkpt>
      <trkpt lat="45.64349" lon="6.01095">
        <ele>1200</ele>
        <time>2015-02-27T17:15:10Z</time>
      </trkpt>
      <trkpt lat="45.64367" lon="6.011">
        <ele>1201</ele>
        <time>2015-02-27T17:15:31Z</time>
      </trkpt>
      <trkpt lat="45.64385" lon="6.011">
        <ele>1202</ele>
        <time>2015-02-27T17:15:51Z</time>
      </trkpt>
      <trkpt lat="45.64405" lon="6.011">
        <ele>1203</ele>
        <time>2015-02-27T17:16:08Z</time>
      </trkpt>
      <trkpt lat="45.64423" lon="6.01095">
        <ele>1205</ele>
        <time>2015-02-27T17:16:28Z</time>
      </trkpt>
      <trkpt lat="45.64439" lon="6.01106">
        <ele>1204</ele>
        <time>2015-02-27T17:17:01Z</time>
      </trkpt>
      <trkpt lat="45.64442" lon="6.01133">
        <ele>1204</ele>
        <time>2015-02-27T17:17:18Z</time>
      </trkpt>
      <trkpt lat="45.64451" lon="6.01157">
        <ele>1203</ele>
        <time>2015-02-27T17:17:40Z</time>
      </trkpt>
      <trkpt lat="45.64468" lon="6.0117">
        <ele>1199</ele>
        <time>2015-02-27T17:17:56Z</time>
      </trkpt>
      <trkpt lat="45.64483" lon="6.01184">
        <ele>1198</ele>
        <time>2015-02-27T17:18:04Z</time>
      </trkpt>
      <trkpt lat="45.64502" lon="6.0119">
        <ele>1198</ele>
        <time>2015-02-27T17:18:12Z</time>
      </trkpt>
      <trkpt lat="45.6452" lon="6.01193">
        <ele>1198</ele>
        <time>2015-02-27T17:18:25Z</time>
      </trkpt>
      <trkpt lat="45.64526" lon="6.01218">
        <ele>1197</ele>
        <time>2015-02-27T17:18:51Z</time>
      </trkpt>
      <trkpt lat="45.64534" lon="6.01243">
        <ele>1196</ele>
        <time>2015-02-27T17:19:03Z</time>
      </trkpt>
      <trkpt lat="45.64532" lon="6.01269">
        <ele>1191</ele>
        <time>2015-02-27T17:20:35Z</time>
      </trkpt>
      <trkpt lat="45.64533" lon="6.01295">
        <ele>1190</ele>
        <time>2015-02-27T17:24:45Z</time>
      </trkpt>
      <trkpt lat="45.6453" lon="6.01321">
        <ele>1189</ele>
        <time>2015-02-27T17:24:58Z</time>
      </trkpt>
      <trkpt lat="45.64532" lon="6.01347">
        <ele>1185</ele>
        <time>2015-02-27T17:25:13Z</time>
      </trkpt>
      <trkpt lat="45.64545" lon="6.01365">
        <ele>1184</ele>
        <time>2015-02-27T17:25:36Z</time>
      </trkpt>
      <trkpt lat="45.64549" lon="6.01391">
        <ele>1184</ele>
        <time>2015-02-27T17:26:04Z</time>
      </trkpt>
      <trkpt lat="45.6455" lon="6.01417">
        <ele>1180</ele>
        <time>2015-02-27T17:26:38Z</time>
      </trkpt>
      <trkpt lat="45.6455" lon="6.01443">
        <ele>1179</ele>
        <time>2015-02-27T17:26:59Z</time>
      </trkpt>
      <trkpt lat="45.64535" lon="6.0146">
        <ele>1179</ele>
        <time>2015-02-27T17:27:18Z</time>
      </trkpt>
      <trkpt lat="45.64519" lon="6.01472">
        <ele>1178</ele>
        <time>2015-02-27T17:27:35Z</time>
      </trkpt>
      <trkpt lat="45.64504" lon="6.01487">
        <ele>1176</ele>
        <time>2015-02-27T17:27:57Z</time>
      </trkpt>
      <trkpt lat="45.64493" lon="6.01508">
        <ele>1172</ele>
        <time>2015-02-27T17:28:19Z</time>
      </trkpt>
      <trkpt lat="45.64476" lon="6.01518">
        <ele>1170</ele>
        <time>2015-02-27T17:28:39Z</time>
      </trkpt>
      <trkpt lat="45.64473" lon="6.01544">
        <ele>1169</ele>
        <time>2015-02-27T17:29:01Z</time>
      </trkpt>
      <trkpt lat="45.64484" lon="6.01564">
        <ele>1170</ele>
        <time>2015-02-27T17:29:18Z</time>
      </trkpt>
      <trkpt lat="45.64501" lon="6.01577">
        <ele>1173</ele>
        <time>2015-02-27T17:29:35Z</time>
      </trkpt>
      <trkpt lat="45.64515" lon="6.01596">
        <ele>1172</ele>
        <time>2015-02-27T17:29:59Z</time>
      </trkpt>
      <trkpt lat="45.64532" lon="6.01607">
        <ele>1171</ele>
        <time>2015-02-27T17:30:13Z</time>
      </trkpt>
      <trkpt lat="45.64545" lon="6.01626">
        <ele>1171</ele>
        <time>2015-02-27T17:30:29Z</time>
      </trkpt>
      <trkpt lat="45.64559" lon="6.01645">
        <ele>1171</ele>
        <time>2015-02-27T17:30:52Z</time>
      </trkpt>
      <trkpt lat="45.64574" lon="6.01661">
        <ele>1171</ele>
        <time>2015-02-27T17:31:05Z</time>
      </trkpt>
      <trkpt lat="45.64589" lon="6.01676">
        <ele>1171</ele>
        <time>2015-02-27T17:31:19Z</time>
      </trkpt>
      <trkpt lat="45.64602" lon="6.01696">
        <ele>1171</ele>
        <time>2015-02-27T17:31:37Z</time>
      </trkpt>
      <trkpt lat="45.64614" lon="6.01716">
        <ele>1171</ele>
        <time>2015-02-27T17:31:53Z</time>
      </trkpt>
      <trkpt lat="45.64609" lon="6.01741">
        <ele>1171</ele>
        <time>2015-02-27T17:32:11Z</time>
      </trkpt>
      <trkpt lat="45.64603" lon="6.01767">
        <ele>1170</ele>
        <time>2015-02-27T17:32:30Z</time>
      </trkpt>
      <trkpt lat="45.646" lon="6.01793">
        <ele>1170</ele>
        <time>2015-02-27T17:32:48Z</time>
      </trkpt>
      <trkpt lat="45.64596" lon="6.01819">
        <ele>1169</ele>
        <time>2015-02-27T17:33:06Z</time>
      </trkpt>
      <trkpt lat="45.64582" lon="6.01803">
        <ele>1165</ele>
        <time>2015-02-27T17:34:29Z</time>
      </trkpt>
    </trkseg>
  </trk>
</gpx>